<?xml version="1.0" encoding="UTF-8" standalone="no" ?>
<gpx xmlns="http://www.topografix.com/GPX/1/1" xmlns:xsi="http://www.w3.org/2001/XMLSchema-instance" xsi:schemaLocation="http://www.topografix.com/GPX/1/1 http://www.topografix.com/GPX/1/1/gpx.xsd" version="1.1" creator="VisuGPX - https://www.visugpx.com">
  <metadata>
    <name>15-VTT AD  15 km 2022</name>
    <desc><![CDATA[15 VTT AD 2022]]></desc>
  </metadata>
  <trk>
    <name><![CDATA[15-VTT AD  15 km 2022]]></name>
    <trkseg>
      <trkpt lat="49.67276" lon="5.60389">
        <ele>333.20001220703</ele>
        <time>2022-03-23T09:43:44.000Z</time>
      </trkpt>
      <trkpt lat="49.67274" lon="5.60386">
        <ele>333.20001220703</ele>
        <time>2022-03-23T09:43:57.000Z</time>
      </trkpt>
      <trkpt lat="49.6727" lon="5.60382">
        <ele>333.39999389648</ele>
        <time>2022-03-23T09:44:00.000Z</time>
      </trkpt>
      <trkpt lat="49.67257" lon="5.60385">
        <ele>334</ele>
        <time>2022-03-23T09:44:04.000Z</time>
      </trkpt>
      <trkpt lat="49.67245" lon="5.60394">
        <ele>334</ele>
        <time>2022-03-23T09:44:08.000Z</time>
      </trkpt>
      <trkpt lat="49.67236" lon="5.60397">
        <ele>333.79998779297</ele>
        <time>2022-03-23T09:44:10.000Z</time>
      </trkpt>
      <trkpt lat="49.67223" lon="5.60398">
        <ele>333.60000610352</ele>
        <time>2022-03-23T09:44:13.000Z</time>
      </trkpt>
      <trkpt lat="49.67205" lon="5.60393">
        <ele>333.20001220703</ele>
        <time>2022-03-23T09:44:17.000Z</time>
      </trkpt>
      <trkpt lat="49.67202" lon="5.6039">
        <ele>333.20001220703</ele>
        <time>2022-03-23T09:44:18.000Z</time>
      </trkpt>
      <trkpt lat="49.67193" lon="5.60378">
        <ele>333.39999389648</ele>
        <time>2022-03-23T09:44:21.000Z</time>
      </trkpt>
      <trkpt lat="49.67188" lon="5.60379">
        <ele>333.39999389648</ele>
        <time>2022-03-23T09:44:22.000Z</time>
      </trkpt>
      <trkpt lat="49.67162" lon="5.60384">
        <ele>333.20001220703</ele>
        <time>2022-03-23T09:44:27.000Z</time>
      </trkpt>
      <trkpt lat="49.67151" lon="5.60391">
        <ele>333</ele>
        <time>2022-03-23T09:44:29.000Z</time>
      </trkpt>
      <trkpt lat="49.67136" lon="5.60406">
        <ele>332.79998779297</ele>
        <time>2022-03-23T09:44:32.000Z</time>
      </trkpt>
      <trkpt lat="49.67105" lon="5.6044">
        <ele>334</ele>
        <time>2022-03-23T09:44:38.000Z</time>
      </trkpt>
      <trkpt lat="49.67072" lon="5.60473">
        <ele>332</ele>
        <time>2022-03-23T09:44:44.000Z</time>
      </trkpt>
      <trkpt lat="49.67054" lon="5.60486">
        <ele>331.39999389648</ele>
        <time>2022-03-23T09:44:47.000Z</time>
      </trkpt>
      <trkpt lat="49.67042" lon="5.60492">
        <ele>331.60000610352</ele>
        <time>2022-03-23T09:44:49.000Z</time>
      </trkpt>
      <trkpt lat="49.67024" lon="5.60495">
        <ele>332.79998779297</ele>
        <time>2022-03-23T09:44:52.000Z</time>
      </trkpt>
      <trkpt lat="49.66978" lon="5.605">
        <ele>337.79998779297</ele>
        <time>2022-03-23T09:45:00.000Z</time>
      </trkpt>
      <trkpt lat="49.66967" lon="5.605">
        <ele>338.79998779297</ele>
        <time>2022-03-23T09:45:02.000Z</time>
      </trkpt>
      <trkpt lat="49.66938" lon="5.60505">
        <ele>340.79998779297</ele>
        <time>2022-03-23T09:45:07.000Z</time>
      </trkpt>
      <trkpt lat="49.66927" lon="5.60507">
        <ele>341.39999389648</ele>
        <time>2022-03-23T09:45:09.000Z</time>
      </trkpt>
      <trkpt lat="49.66921" lon="5.60509">
        <ele>341.60000610352</ele>
        <time>2022-03-23T09:45:10.000Z</time>
      </trkpt>
      <trkpt lat="49.66898" lon="5.6052">
        <ele>342</ele>
        <time>2022-03-23T09:45:14.000Z</time>
      </trkpt>
      <trkpt lat="49.66888" lon="5.60525">
        <ele>342</ele>
        <time>2022-03-23T09:45:16.000Z</time>
      </trkpt>
      <trkpt lat="49.66877" lon="5.60531">
        <ele>342</ele>
        <time>2022-03-23T09:45:18.000Z</time>
      </trkpt>
      <trkpt lat="49.66861" lon="5.6054">
        <ele>341.39999389648</ele>
        <time>2022-03-23T09:45:21.000Z</time>
      </trkpt>
      <trkpt lat="49.66839" lon="5.60551">
        <ele>341</ele>
        <time>2022-03-23T09:45:25.000Z</time>
      </trkpt>
      <trkpt lat="49.66795" lon="5.60577">
        <ele>340.60000610352</ele>
        <time>2022-03-23T09:45:33.000Z</time>
      </trkpt>
      <trkpt lat="49.66785" lon="5.60586">
        <ele>341</ele>
        <time>2022-03-23T09:45:35.000Z</time>
      </trkpt>
      <trkpt lat="49.66776" lon="5.60599">
        <ele>341.39999389648</ele>
        <time>2022-03-23T09:45:37.000Z</time>
      </trkpt>
      <trkpt lat="49.66768" lon="5.60613">
        <ele>341.39999389648</ele>
        <time>2022-03-23T09:45:39.000Z</time>
      </trkpt>
      <trkpt lat="49.66763" lon="5.60617">
        <ele>341.39999389648</ele>
        <time>2022-03-23T09:45:40.000Z</time>
      </trkpt>
      <trkpt lat="49.66757" lon="5.60617">
        <ele>341.20001220703</ele>
        <time>2022-03-23T09:45:41.000Z</time>
      </trkpt>
      <trkpt lat="49.66742" lon="5.60604">
        <ele>341</ele>
        <time>2022-03-23T09:45:44.000Z</time>
      </trkpt>
      <trkpt lat="49.66737" lon="5.60599">
        <ele>341</ele>
        <time>2022-03-23T09:45:45.000Z</time>
      </trkpt>
      <trkpt lat="49.66708" lon="5.60566">
        <ele>340.39999389648</ele>
        <time>2022-03-23T09:45:51.000Z</time>
      </trkpt>
      <trkpt lat="49.66703" lon="5.60561">
        <ele>340.20001220703</ele>
        <time>2022-03-23T09:45:52.000Z</time>
      </trkpt>
      <trkpt lat="49.66657" lon="5.60514">
        <ele>340.60000610352</ele>
        <time>2022-03-23T09:46:01.000Z</time>
      </trkpt>
      <trkpt lat="49.66652" lon="5.60509">
        <ele>340.60000610352</ele>
        <time>2022-03-23T09:46:02.000Z</time>
      </trkpt>
      <trkpt lat="49.66618" lon="5.60486">
        <ele>342</ele>
        <time>2022-03-23T09:46:08.000Z</time>
      </trkpt>
      <trkpt lat="49.66612" lon="5.60484">
        <ele>341.79998779297</ele>
        <time>2022-03-23T09:46:09.000Z</time>
      </trkpt>
      <trkpt lat="49.66587" lon="5.6049">
        <ele>341</ele>
        <time>2022-03-23T09:46:13.000Z</time>
      </trkpt>
      <trkpt lat="49.66575" lon="5.60497">
        <ele>340.20001220703</ele>
        <time>2022-03-23T09:46:15.000Z</time>
      </trkpt>
      <trkpt lat="49.66569" lon="5.60501">
        <ele>339.60000610352</ele>
        <time>2022-03-23T09:46:16.000Z</time>
      </trkpt>
      <trkpt lat="49.66558" lon="5.60513">
        <ele>339</ele>
        <time>2022-03-23T09:46:18.000Z</time>
      </trkpt>
      <trkpt lat="49.66528" lon="5.60551">
        <ele>340.20001220703</ele>
        <time>2022-03-23T09:46:24.000Z</time>
      </trkpt>
      <trkpt lat="49.66507" lon="5.60571">
        <ele>343.60000610352</ele>
        <time>2022-03-23T09:46:28.000Z</time>
      </trkpt>
      <trkpt lat="49.66494" lon="5.60577">
        <ele>345</ele>
        <time>2022-03-23T09:46:30.000Z</time>
      </trkpt>
      <trkpt lat="49.66469" lon="5.60576">
        <ele>345.79998779297</ele>
        <time>2022-03-23T09:46:34.000Z</time>
      </trkpt>
      <trkpt lat="49.66463" lon="5.60575">
        <ele>345.20001220703</ele>
        <time>2022-03-23T09:46:35.000Z</time>
      </trkpt>
      <trkpt lat="49.66458" lon="5.60572">
        <ele>344.79998779297</ele>
        <time>2022-03-23T09:46:36.000Z</time>
      </trkpt>
      <trkpt lat="49.66441" lon="5.60559">
        <ele>343</ele>
        <time>2022-03-23T09:46:39.000Z</time>
      </trkpt>
      <trkpt lat="49.66424" lon="5.60532">
        <ele>342</ele>
        <time>2022-03-23T09:46:43.000Z</time>
      </trkpt>
      <trkpt lat="49.66391" lon="5.60466">
        <ele>342</ele>
        <time>2022-03-23T09:46:52.000Z</time>
      </trkpt>
      <trkpt lat="49.66371" lon="5.60424">
        <ele>343.60000610352</ele>
        <time>2022-03-23T09:46:58.000Z</time>
      </trkpt>
      <trkpt lat="49.66368" lon="5.60419">
        <ele>343.79998779297</ele>
        <time>2022-03-23T09:46:59.000Z</time>
      </trkpt>
      <trkpt lat="49.66363" lon="5.60409">
        <ele>344.60000610352</ele>
        <time>2022-03-23T09:47:01.000Z</time>
      </trkpt>
      <trkpt lat="49.66353" lon="5.60408">
        <ele>345.79998779297</ele>
        <time>2022-03-23T09:47:03.000Z</time>
      </trkpt>
      <trkpt lat="49.66344" lon="5.60417">
        <ele>346.39999389648</ele>
        <time>2022-03-23T09:47:05.000Z</time>
      </trkpt>
      <trkpt lat="49.6634" lon="5.60424">
        <ele>346.60000610352</ele>
        <time>2022-03-23T09:47:06.000Z</time>
      </trkpt>
      <trkpt lat="49.66335" lon="5.60431">
        <ele>347</ele>
        <time>2022-03-23T09:47:07.000Z</time>
      </trkpt>
      <trkpt lat="49.66305" lon="5.6048">
        <ele>352.20001220703</ele>
        <time>2022-03-23T09:47:14.000Z</time>
      </trkpt>
      <trkpt lat="49.66279" lon="5.60533">
        <ele>352.79998779297</ele>
        <time>2022-03-23T09:47:21.000Z</time>
      </trkpt>
      <trkpt lat="49.66275" lon="5.6054">
        <ele>352.39999389648</ele>
        <time>2022-03-23T09:47:22.000Z</time>
      </trkpt>
      <trkpt lat="49.66247" lon="5.606">
        <ele>350.20001220703</ele>
        <time>2022-03-23T09:47:30.000Z</time>
      </trkpt>
      <trkpt lat="49.66219" lon="5.60662">
        <ele>346.39999389648</ele>
        <time>2022-03-23T09:47:38.000Z</time>
      </trkpt>
      <trkpt lat="49.66194" lon="5.60717">
        <ele>344.20001220703</ele>
        <time>2022-03-23T09:47:45.000Z</time>
      </trkpt>
      <trkpt lat="49.66186" lon="5.60733">
        <ele>344.39999389648</ele>
        <time>2022-03-23T09:47:47.000Z</time>
      </trkpt>
      <trkpt lat="49.66154" lon="5.60803">
        <ele>347</ele>
        <time>2022-03-23T09:47:56.000Z</time>
      </trkpt>
      <trkpt lat="49.66147" lon="5.60818">
        <ele>347</ele>
        <time>2022-03-23T09:47:58.000Z</time>
      </trkpt>
      <trkpt lat="49.66113" lon="5.60887">
        <ele>347.20001220703</ele>
        <time>2022-03-23T09:48:07.000Z</time>
      </trkpt>
      <trkpt lat="49.66082" lon="5.60947">
        <ele>350</ele>
        <time>2022-03-23T09:48:15.000Z</time>
      </trkpt>
      <trkpt lat="49.66048" lon="5.61008">
        <ele>347.60000610352</ele>
        <time>2022-03-23T09:48:23.000Z</time>
      </trkpt>
      <trkpt lat="49.66024" lon="5.61047">
        <ele>344.79998779297</ele>
        <time>2022-03-23T09:48:28.000Z</time>
      </trkpt>
      <trkpt lat="49.66009" lon="5.61071">
        <ele>343.20001220703</ele>
        <time>2022-03-23T09:48:31.000Z</time>
      </trkpt>
      <trkpt lat="49.65999" lon="5.61087">
        <ele>343</ele>
        <time>2022-03-23T09:48:33.000Z</time>
      </trkpt>
      <trkpt lat="49.65966" lon="5.61141">
        <ele>345.60000610352</ele>
        <time>2022-03-23T09:48:40.000Z</time>
      </trkpt>
      <trkpt lat="49.65961" lon="5.61149">
        <ele>346.39999389648</ele>
        <time>2022-03-23T09:48:41.000Z</time>
      </trkpt>
      <trkpt lat="49.65935" lon="5.6119">
        <ele>347.79998779297</ele>
        <time>2022-03-23T09:48:47.000Z</time>
      </trkpt>
      <trkpt lat="49.65906" lon="5.61235">
        <ele>348.60000610352</ele>
        <time>2022-03-23T09:48:54.000Z</time>
      </trkpt>
      <trkpt lat="49.65895" lon="5.61255">
        <ele>350.39999389648</ele>
        <time>2022-03-23T09:48:57.000Z</time>
      </trkpt>
      <trkpt lat="49.65893" lon="5.61262">
        <ele>351.60000610352</ele>
        <time>2022-03-23T09:48:58.000Z</time>
      </trkpt>
      <trkpt lat="49.6589" lon="5.61279">
        <ele>354.60000610352</ele>
        <time>2022-03-23T09:49:00.000Z</time>
      </trkpt>
      <trkpt lat="49.6589" lon="5.61296">
        <ele>357</ele>
        <time>2022-03-23T09:49:02.000Z</time>
      </trkpt>
      <trkpt lat="49.65895" lon="5.61312">
        <ele>359.20001220703</ele>
        <time>2022-03-23T09:49:04.000Z</time>
      </trkpt>
      <trkpt lat="49.6591" lon="5.61339">
        <ele>360</ele>
        <time>2022-03-23T09:49:08.000Z</time>
      </trkpt>
      <trkpt lat="49.65915" lon="5.61345">
        <ele>359.79998779297</ele>
        <time>2022-03-23T09:49:09.000Z</time>
      </trkpt>
      <trkpt lat="49.65924" lon="5.61356">
        <ele>359.60000610352</ele>
        <time>2022-03-23T09:49:11.000Z</time>
      </trkpt>
      <trkpt lat="49.65939" lon="5.6137">
        <ele>359.20001220703</ele>
        <time>2022-03-23T09:49:14.000Z</time>
      </trkpt>
      <trkpt lat="49.6595" lon="5.61377">
        <ele>359.20001220703</ele>
        <time>2022-03-23T09:49:16.000Z</time>
      </trkpt>
      <trkpt lat="49.65972" lon="5.61389">
        <ele>360.60000610352</ele>
        <time>2022-03-23T09:49:20.000Z</time>
      </trkpt>
      <trkpt lat="49.66003" lon="5.61418">
        <ele>360</ele>
        <time>2022-03-23T09:49:26.000Z</time>
      </trkpt>
      <trkpt lat="49.6603" lon="5.61454">
        <ele>353.20001220703</ele>
        <time>2022-03-23T09:49:32.000Z</time>
      </trkpt>
      <trkpt lat="49.66033" lon="5.61462">
        <ele>352</ele>
        <time>2022-03-23T09:49:33.000Z</time>
      </trkpt>
      <trkpt lat="49.66037" lon="5.61486">
        <ele>348.79998779297</ele>
        <time>2022-03-23T09:49:36.000Z</time>
      </trkpt>
      <trkpt lat="49.66035" lon="5.61505">
        <ele>347.60000610352</ele>
        <time>2022-03-23T09:49:39.000Z</time>
      </trkpt>
      <trkpt lat="49.66035" lon="5.61511">
        <ele>347.39999389648</ele>
        <time>2022-03-23T09:49:40.000Z</time>
      </trkpt>
      <trkpt lat="49.66032" lon="5.61542">
        <ele>347</ele>
        <time>2022-03-23T09:49:45.000Z</time>
      </trkpt>
      <trkpt lat="49.66033" lon="5.61598">
        <ele>348</ele>
        <time>2022-03-23T09:49:52.000Z</time>
      </trkpt>
      <trkpt lat="49.66036" lon="5.61615">
        <ele>347.60000610352</ele>
        <time>2022-03-23T09:49:54.000Z</time>
      </trkpt>
      <trkpt lat="49.66038" lon="5.61623">
        <ele>347.20001220703</ele>
        <time>2022-03-23T09:49:55.000Z</time>
      </trkpt>
      <trkpt lat="49.66043" lon="5.61638">
        <ele>346.60000610352</ele>
        <time>2022-03-23T09:49:57.000Z</time>
      </trkpt>
      <trkpt lat="49.66051" lon="5.61667">
        <ele>346</ele>
        <time>2022-03-23T09:50:01.000Z</time>
      </trkpt>
      <trkpt lat="49.66051" lon="5.61681">
        <ele>346</ele>
        <time>2022-03-23T09:50:03.000Z</time>
      </trkpt>
      <trkpt lat="49.66041" lon="5.61696">
        <ele>347</ele>
        <time>2022-03-23T09:50:06.000Z</time>
      </trkpt>
      <trkpt lat="49.66037" lon="5.617">
        <ele>347.60000610352</ele>
        <time>2022-03-23T09:50:07.000Z</time>
      </trkpt>
      <trkpt lat="49.66016" lon="5.6173">
        <ele>350</ele>
        <time>2022-03-23T09:50:13.000Z</time>
      </trkpt>
      <trkpt lat="49.66002" lon="5.61751">
        <ele>351.20001220703</ele>
        <time>2022-03-23T09:50:17.000Z</time>
      </trkpt>
      <trkpt lat="49.65992" lon="5.61765">
        <ele>352</ele>
        <time>2022-03-23T09:50:20.000Z</time>
      </trkpt>
      <trkpt lat="49.65964" lon="5.61803">
        <ele>353.60000610352</ele>
        <time>2022-03-23T09:50:27.000Z</time>
      </trkpt>
      <trkpt lat="49.65961" lon="5.61808">
        <ele>354.20001220703</ele>
        <time>2022-03-23T09:50:28.000Z</time>
      </trkpt>
      <trkpt lat="49.65934" lon="5.61847">
        <ele>353.79998779297</ele>
        <time>2022-03-23T09:50:35.000Z</time>
      </trkpt>
      <trkpt lat="49.65908" lon="5.61886">
        <ele>352.39999389648</ele>
        <time>2022-03-23T09:50:42.000Z</time>
      </trkpt>
      <trkpt lat="49.65889" lon="5.61915">
        <ele>352.79998779297</ele>
        <time>2022-03-23T09:50:47.000Z</time>
      </trkpt>
      <trkpt lat="49.65864" lon="5.61949">
        <ele>350.79998779297</ele>
        <time>2022-03-23T09:50:52.000Z</time>
      </trkpt>
      <trkpt lat="49.65854" lon="5.61962">
        <ele>349.20001220703</ele>
        <time>2022-03-23T09:50:54.000Z</time>
      </trkpt>
      <trkpt lat="49.65841" lon="5.61982">
        <ele>346</ele>
        <time>2022-03-23T09:50:57.000Z</time>
      </trkpt>
      <trkpt lat="49.65837" lon="5.61988">
        <ele>346</ele>
        <time>2022-03-23T09:50:58.000Z</time>
      </trkpt>
      <trkpt lat="49.65835" lon="5.61993">
        <ele>346</ele>
        <time>2022-03-23T09:50:59.000Z</time>
      </trkpt>
      <trkpt lat="49.65837" lon="5.62">
        <ele>346</ele>
        <time>2022-03-23T09:51:02.000Z</time>
      </trkpt>
      <trkpt lat="49.65838" lon="5.62002">
        <ele>346</ele>
        <time>2022-03-23T09:51:03.000Z</time>
      </trkpt>
      <trkpt lat="49.65843" lon="5.62008">
        <ele>346</ele>
        <time>2022-03-23T09:51:05.000Z</time>
      </trkpt>
      <trkpt lat="49.65849" lon="5.62013">
        <ele>346</ele>
        <time>2022-03-23T09:51:07.000Z</time>
      </trkpt>
      <trkpt lat="49.65868" lon="5.62026">
        <ele>346.20001220703</ele>
        <time>2022-03-23T09:51:12.000Z</time>
      </trkpt>
      <trkpt lat="49.65869" lon="5.62041">
        <ele>346.60000610352</ele>
        <time>2022-03-23T09:51:15.000Z</time>
      </trkpt>
      <trkpt lat="49.65862" lon="5.62046">
        <ele>346.60000610352</ele>
        <time>2022-03-23T09:51:18.000Z</time>
      </trkpt>
      <trkpt lat="49.65858" lon="5.62046">
        <ele>346.60000610352</ele>
        <time>2022-03-23T09:51:19.000Z</time>
      </trkpt>
      <trkpt lat="49.65853" lon="5.62047">
        <ele>346.60000610352</ele>
        <time>2022-03-23T09:51:20.000Z</time>
      </trkpt>
      <trkpt lat="49.65842" lon="5.62049">
        <ele>346.20001220703</ele>
        <time>2022-03-23T09:51:22.000Z</time>
      </trkpt>
      <trkpt lat="49.65836" lon="5.62051">
        <ele>346</ele>
        <time>2022-03-23T09:51:23.000Z</time>
      </trkpt>
      <trkpt lat="49.65824" lon="5.62054">
        <ele>346.20001220703</ele>
        <time>2022-03-23T09:51:25.000Z</time>
      </trkpt>
      <trkpt lat="49.65806" lon="5.62057">
        <ele>346</ele>
        <time>2022-03-23T09:51:28.000Z</time>
      </trkpt>
      <trkpt lat="49.65764" lon="5.6206">
        <ele>346.60000610352</ele>
        <time>2022-03-23T09:51:35.000Z</time>
      </trkpt>
      <trkpt lat="49.65722" lon="5.62063">
        <ele>347.60000610352</ele>
        <time>2022-03-23T09:51:42.000Z</time>
      </trkpt>
      <trkpt lat="49.65676" lon="5.62069">
        <ele>350.60000610352</ele>
        <time>2022-03-23T09:51:50.000Z</time>
      </trkpt>
      <trkpt lat="49.65657" lon="5.62084">
        <ele>349.79998779297</ele>
        <time>2022-03-23T09:51:54.000Z</time>
      </trkpt>
      <trkpt lat="49.6564" lon="5.62113">
        <ele>350</ele>
        <time>2022-03-23T09:51:59.000Z</time>
      </trkpt>
      <trkpt lat="49.65638" lon="5.62118">
        <ele>350.20001220703</ele>
        <time>2022-03-23T09:52:00.000Z</time>
      </trkpt>
      <trkpt lat="49.65636" lon="5.62124">
        <ele>350.39999389648</ele>
        <time>2022-03-23T09:52:01.000Z</time>
      </trkpt>
      <trkpt lat="49.6563" lon="5.62134">
        <ele>350.79998779297</ele>
        <time>2022-03-23T09:52:03.000Z</time>
      </trkpt>
      <trkpt lat="49.65625" lon="5.62144">
        <ele>351.79998779297</ele>
        <time>2022-03-23T09:52:05.000Z</time>
      </trkpt>
      <trkpt lat="49.65623" lon="5.62149">
        <ele>352</ele>
        <time>2022-03-23T09:52:06.000Z</time>
      </trkpt>
      <trkpt lat="49.65616" lon="5.62166">
        <ele>353.60000610352</ele>
        <time>2022-03-23T09:52:09.000Z</time>
      </trkpt>
      <trkpt lat="49.65609" lon="5.62186">
        <ele>354.60000610352</ele>
        <time>2022-03-23T09:52:12.000Z</time>
      </trkpt>
      <trkpt lat="49.656" lon="5.62234">
        <ele>356.60000610352</ele>
        <time>2022-03-23T09:52:18.000Z</time>
      </trkpt>
      <trkpt lat="49.65589" lon="5.62295">
        <ele>358</ele>
        <time>2022-03-23T09:52:25.000Z</time>
      </trkpt>
      <trkpt lat="49.65577" lon="5.62356">
        <ele>354</ele>
        <time>2022-03-23T09:52:31.000Z</time>
      </trkpt>
      <trkpt lat="49.6557" lon="5.62377">
        <ele>352.79998779297</ele>
        <time>2022-03-23T09:52:33.000Z</time>
      </trkpt>
      <trkpt lat="49.65563" lon="5.62397">
        <ele>352.60000610352</ele>
        <time>2022-03-23T09:52:35.000Z</time>
      </trkpt>
      <trkpt lat="49.65559" lon="5.62408">
        <ele>351.39999389648</ele>
        <time>2022-03-23T09:52:36.000Z</time>
      </trkpt>
      <trkpt lat="49.65555" lon="5.62427">
        <ele>350</ele>
        <time>2022-03-23T09:52:38.000Z</time>
      </trkpt>
      <trkpt lat="49.65551" lon="5.62446">
        <ele>349.60000610352</ele>
        <time>2022-03-23T09:52:40.000Z</time>
      </trkpt>
      <trkpt lat="49.65545" lon="5.62485">
        <ele>352.20001220703</ele>
        <time>2022-03-23T09:52:45.000Z</time>
      </trkpt>
      <trkpt lat="49.65543" lon="5.62498">
        <ele>352.79998779297</ele>
        <time>2022-03-23T09:52:47.000Z</time>
      </trkpt>
      <trkpt lat="49.65538" lon="5.62518">
        <ele>353.79998779297</ele>
        <time>2022-03-23T09:52:50.000Z</time>
      </trkpt>
      <trkpt lat="49.65532" lon="5.62531">
        <ele>354</ele>
        <time>2022-03-23T09:52:52.000Z</time>
      </trkpt>
      <trkpt lat="49.65529" lon="5.62537">
        <ele>354.39999389648</ele>
        <time>2022-03-23T09:52:53.000Z</time>
      </trkpt>
      <trkpt lat="49.65521" lon="5.62548">
        <ele>355</ele>
        <time>2022-03-23T09:52:55.000Z</time>
      </trkpt>
      <trkpt lat="49.65516" lon="5.62554">
        <ele>355</ele>
        <time>2022-03-23T09:52:56.000Z</time>
      </trkpt>
      <trkpt lat="49.65512" lon="5.62559">
        <ele>355</ele>
        <time>2022-03-23T09:52:57.000Z</time>
      </trkpt>
      <trkpt lat="49.65488" lon="5.62592">
        <ele>354.79998779297</ele>
        <time>2022-03-23T09:53:02.000Z</time>
      </trkpt>
      <trkpt lat="49.6548" lon="5.62606">
        <ele>354.79998779297</ele>
        <time>2022-03-23T09:53:04.000Z</time>
      </trkpt>
      <trkpt lat="49.65477" lon="5.62615">
        <ele>355</ele>
        <time>2022-03-23T09:53:05.000Z</time>
      </trkpt>
      <trkpt lat="49.6546" lon="5.62653">
        <ele>355.20001220703</ele>
        <time>2022-03-23T09:53:10.000Z</time>
      </trkpt>
      <trkpt lat="49.65435" lon="5.62706">
        <ele>353.39999389648</ele>
        <time>2022-03-23T09:53:17.000Z</time>
      </trkpt>
      <trkpt lat="49.6541" lon="5.6276">
        <ele>355.79998779297</ele>
        <time>2022-03-23T09:53:24.000Z</time>
      </trkpt>
      <trkpt lat="49.654" lon="5.62783">
        <ele>357</ele>
        <time>2022-03-23T09:53:27.000Z</time>
      </trkpt>
      <trkpt lat="49.654" lon="5.62807">
        <ele>358.60000610352</ele>
        <time>2022-03-23T09:53:30.000Z</time>
      </trkpt>
      <trkpt lat="49.65408" lon="5.62831">
        <ele>359</ele>
        <time>2022-03-23T09:53:33.000Z</time>
      </trkpt>
      <trkpt lat="49.6541" lon="5.6284">
        <ele>359</ele>
        <time>2022-03-23T09:53:34.000Z</time>
      </trkpt>
      <trkpt lat="49.65414" lon="5.62859">
        <ele>359</ele>
        <time>2022-03-23T09:53:36.000Z</time>
      </trkpt>
      <trkpt lat="49.65422" lon="5.62898">
        <ele>357.79998779297</ele>
        <time>2022-03-23T09:53:40.000Z</time>
      </trkpt>
      <trkpt lat="49.65438" lon="5.62974">
        <ele>358.39999389648</ele>
        <time>2022-03-23T09:53:48.000Z</time>
      </trkpt>
      <trkpt lat="49.6545" lon="5.63017">
        <ele>357.39999389648</ele>
        <time>2022-03-23T09:53:53.000Z</time>
      </trkpt>
      <trkpt lat="49.65452" lon="5.63026">
        <ele>357</ele>
        <time>2022-03-23T09:53:54.000Z</time>
      </trkpt>
      <trkpt lat="49.65465" lon="5.63077">
        <ele>353.79998779297</ele>
        <time>2022-03-23T09:54:00.000Z</time>
      </trkpt>
      <trkpt lat="49.65477" lon="5.63133">
        <ele>352</ele>
        <time>2022-03-23T09:54:07.000Z</time>
      </trkpt>
      <trkpt lat="49.65481" lon="5.63159">
        <ele>352.39999389648</ele>
        <time>2022-03-23T09:54:10.000Z</time>
      </trkpt>
      <trkpt lat="49.65487" lon="5.63187">
        <ele>353.20001220703</ele>
        <time>2022-03-23T09:54:13.000Z</time>
      </trkpt>
      <trkpt lat="49.65491" lon="5.63207">
        <ele>353.20001220703</ele>
        <time>2022-03-23T09:54:15.000Z</time>
      </trkpt>
      <trkpt lat="49.65502" lon="5.63247">
        <ele>352.20001220703</ele>
        <time>2022-03-23T09:54:19.000Z</time>
      </trkpt>
      <trkpt lat="49.65507" lon="5.63268">
        <ele>351.60000610352</ele>
        <time>2022-03-23T09:54:21.000Z</time>
      </trkpt>
      <trkpt lat="49.65509" lon="5.63279">
        <ele>351.20001220703</ele>
        <time>2022-03-23T09:54:22.000Z</time>
      </trkpt>
      <trkpt lat="49.65526" lon="5.63338">
        <ele>350.20001220703</ele>
        <time>2022-03-23T09:54:28.000Z</time>
      </trkpt>
      <trkpt lat="49.65548" lon="5.63413">
        <ele>348.60000610352</ele>
        <time>2022-03-23T09:54:36.000Z</time>
      </trkpt>
      <trkpt lat="49.65551" lon="5.63422">
        <ele>347.79998779297</ele>
        <time>2022-03-23T09:54:37.000Z</time>
      </trkpt>
      <trkpt lat="49.65562" lon="5.63462">
        <ele>344.39999389648</ele>
        <time>2022-03-23T09:54:41.000Z</time>
      </trkpt>
      <trkpt lat="49.6556" lon="5.63481">
        <ele>344</ele>
        <time>2022-03-23T09:54:43.000Z</time>
      </trkpt>
      <trkpt lat="49.65553" lon="5.63494">
        <ele>345</ele>
        <time>2022-03-23T09:54:45.000Z</time>
      </trkpt>
      <trkpt lat="49.65548" lon="5.635">
        <ele>345.39999389648</ele>
        <time>2022-03-23T09:54:46.000Z</time>
      </trkpt>
      <trkpt lat="49.6553" lon="5.63528">
        <ele>347</ele>
        <time>2022-03-23T09:54:50.000Z</time>
      </trkpt>
      <trkpt lat="49.65527" lon="5.63536">
        <ele>347</ele>
        <time>2022-03-23T09:54:51.000Z</time>
      </trkpt>
      <trkpt lat="49.65514" lon="5.63581">
        <ele>348.20001220703</ele>
        <time>2022-03-23T09:54:56.000Z</time>
      </trkpt>
      <trkpt lat="49.65511" lon="5.636">
        <ele>349.20001220703</ele>
        <time>2022-03-23T09:54:58.000Z</time>
      </trkpt>
      <trkpt lat="49.65493" lon="5.63677">
        <ele>349</ele>
        <time>2022-03-23T09:55:06.000Z</time>
      </trkpt>
      <trkpt lat="49.65466" lon="5.63721">
        <ele>343.39999389648</ele>
        <time>2022-03-23T09:55:12.000Z</time>
      </trkpt>
      <trkpt lat="49.6545" lon="5.63756">
        <ele>338</ele>
        <time>2022-03-23T09:55:16.000Z</time>
      </trkpt>
      <trkpt lat="49.65442" lon="5.63772">
        <ele>337.79998779297</ele>
        <time>2022-03-23T09:55:18.000Z</time>
      </trkpt>
      <trkpt lat="49.65434" lon="5.63788">
        <ele>338.39999389648</ele>
        <time>2022-03-23T09:55:20.000Z</time>
      </trkpt>
      <trkpt lat="49.65425" lon="5.63811">
        <ele>341</ele>
        <time>2022-03-23T09:55:23.000Z</time>
      </trkpt>
      <trkpt lat="49.65423" lon="5.63819">
        <ele>342.20001220703</ele>
        <time>2022-03-23T09:55:24.000Z</time>
      </trkpt>
      <trkpt lat="49.65419" lon="5.63831">
        <ele>344.20001220703</ele>
        <time>2022-03-23T09:55:26.000Z</time>
      </trkpt>
      <trkpt lat="49.65416" lon="5.63834">
        <ele>344.60000610352</ele>
        <time>2022-03-23T09:55:27.000Z</time>
      </trkpt>
      <trkpt lat="49.65401" lon="5.63831">
        <ele>344.60000610352</ele>
        <time>2022-03-23T09:55:30.000Z</time>
      </trkpt>
      <trkpt lat="49.65396" lon="5.63829">
        <ele>344.39999389648</ele>
        <time>2022-03-23T09:55:31.000Z</time>
      </trkpt>
      <trkpt lat="49.6539" lon="5.63827">
        <ele>344.20001220703</ele>
        <time>2022-03-23T09:55:32.000Z</time>
      </trkpt>
      <trkpt lat="49.65386" lon="5.63826">
        <ele>344.60000610352</ele>
        <time>2022-03-23T09:55:33.000Z</time>
      </trkpt>
      <trkpt lat="49.65375" lon="5.63821">
        <ele>344.20001220703</ele>
        <time>2022-03-23T09:55:35.000Z</time>
      </trkpt>
      <trkpt lat="49.65355" lon="5.63816">
        <ele>346</ele>
        <time>2022-03-23T09:55:39.000Z</time>
      </trkpt>
      <trkpt lat="49.65351" lon="5.63815">
        <ele>346.79998779297</ele>
        <time>2022-03-23T09:55:40.000Z</time>
      </trkpt>
      <trkpt lat="49.65344" lon="5.63813">
        <ele>348</ele>
        <time>2022-03-23T09:55:42.000Z</time>
      </trkpt>
      <trkpt lat="49.65331" lon="5.63808">
        <ele>349.60000610352</ele>
        <time>2022-03-23T09:55:45.000Z</time>
      </trkpt>
      <trkpt lat="49.65327" lon="5.63806">
        <ele>350</ele>
        <time>2022-03-23T09:55:46.000Z</time>
      </trkpt>
      <trkpt lat="49.65323" lon="5.63804">
        <ele>350.39999389648</ele>
        <time>2022-03-23T09:55:47.000Z</time>
      </trkpt>
      <trkpt lat="49.65302" lon="5.63791">
        <ele>351.60000610352</ele>
        <time>2022-03-23T09:55:51.000Z</time>
      </trkpt>
      <trkpt lat="49.6528" lon="5.63772">
        <ele>351.79998779297</ele>
        <time>2022-03-23T09:55:55.000Z</time>
      </trkpt>
      <trkpt lat="49.65276" lon="5.63764">
        <ele>351.79998779297</ele>
        <time>2022-03-23T09:55:56.000Z</time>
      </trkpt>
      <trkpt lat="49.65264" lon="5.63741">
        <ele>351</ele>
        <time>2022-03-23T09:55:59.000Z</time>
      </trkpt>
      <trkpt lat="49.65259" lon="5.63735">
        <ele>350.60000610352</ele>
        <time>2022-03-23T09:56:00.000Z</time>
      </trkpt>
      <trkpt lat="49.65229" lon="5.63698">
        <ele>349.60000610352</ele>
        <time>2022-03-23T09:56:06.000Z</time>
      </trkpt>
      <trkpt lat="49.65198" lon="5.63653">
        <ele>349.79998779297</ele>
        <time>2022-03-23T09:56:13.000Z</time>
      </trkpt>
      <trkpt lat="49.6518" lon="5.63624">
        <ele>351</ele>
        <time>2022-03-23T09:56:18.000Z</time>
      </trkpt>
      <trkpt lat="49.6517" lon="5.63606">
        <ele>351.79998779297</ele>
        <time>2022-03-23T09:56:21.000Z</time>
      </trkpt>
      <trkpt lat="49.65169" lon="5.6359">
        <ele>351.20001220703</ele>
        <time>2022-03-23T09:56:23.000Z</time>
      </trkpt>
      <trkpt lat="49.65173" lon="5.63566">
        <ele>350.79998779297</ele>
        <time>2022-03-23T09:56:26.000Z</time>
      </trkpt>
      <trkpt lat="49.65175" lon="5.63558">
        <ele>350.79998779297</ele>
        <time>2022-03-23T09:56:27.000Z</time>
      </trkpt>
      <trkpt lat="49.65182" lon="5.63531">
        <ele>349.79998779297</ele>
        <time>2022-03-23T09:56:31.000Z</time>
      </trkpt>
      <trkpt lat="49.65184" lon="5.63516">
        <ele>350.20001220703</ele>
        <time>2022-03-23T09:56:33.000Z</time>
      </trkpt>
      <trkpt lat="49.65185" lon="5.63508">
        <ele>350</ele>
        <time>2022-03-23T09:56:34.000Z</time>
      </trkpt>
      <trkpt lat="49.65186" lon="5.63494">
        <ele>350.20001220703</ele>
        <time>2022-03-23T09:56:36.000Z</time>
      </trkpt>
      <trkpt lat="49.65185" lon="5.63485">
        <ele>350.39999389648</ele>
        <time>2022-03-23T09:56:37.000Z</time>
      </trkpt>
      <trkpt lat="49.65183" lon="5.63467">
        <ele>350.79998779297</ele>
        <time>2022-03-23T09:56:39.000Z</time>
      </trkpt>
      <trkpt lat="49.6518" lon="5.63459">
        <ele>351.39999389648</ele>
        <time>2022-03-23T09:56:40.000Z</time>
      </trkpt>
      <trkpt lat="49.65163" lon="5.63434">
        <ele>352.60000610352</ele>
        <time>2022-03-23T09:56:44.000Z</time>
      </trkpt>
      <trkpt lat="49.65158" lon="5.63429">
        <ele>352.60000610352</ele>
        <time>2022-03-23T09:56:45.000Z</time>
      </trkpt>
      <trkpt lat="49.65143" lon="5.63401">
        <ele>351.60000610352</ele>
        <time>2022-03-23T09:56:49.000Z</time>
      </trkpt>
      <trkpt lat="49.65139" lon="5.63392">
        <ele>351.20001220703</ele>
        <time>2022-03-23T09:56:50.000Z</time>
      </trkpt>
      <trkpt lat="49.65131" lon="5.63376">
        <ele>350</ele>
        <time>2022-03-23T09:56:52.000Z</time>
      </trkpt>
      <trkpt lat="49.65118" lon="5.63357">
        <ele>348.60000610352</ele>
        <time>2022-03-23T09:56:55.000Z</time>
      </trkpt>
      <trkpt lat="49.65114" lon="5.63349">
        <ele>348</ele>
        <time>2022-03-23T09:56:56.000Z</time>
      </trkpt>
      <trkpt lat="49.65104" lon="5.63328">
        <ele>346.79998779297</ele>
        <time>2022-03-23T09:56:59.000Z</time>
      </trkpt>
      <trkpt lat="49.65088" lon="5.63302">
        <ele>346.39999389648</ele>
        <time>2022-03-23T09:57:04.000Z</time>
      </trkpt>
      <trkpt lat="49.6507" lon="5.63279">
        <ele>349.20001220703</ele>
        <time>2022-03-23T09:57:10.000Z</time>
      </trkpt>
      <trkpt lat="49.65056" lon="5.63261">
        <ele>351.20001220703</ele>
        <time>2022-03-23T09:57:14.000Z</time>
      </trkpt>
      <trkpt lat="49.65046" lon="5.63249">
        <ele>351.39999389648</ele>
        <time>2022-03-23T09:57:16.000Z</time>
      </trkpt>
      <trkpt lat="49.65037" lon="5.63236">
        <ele>350.79998779297</ele>
        <time>2022-03-23T09:57:18.000Z</time>
      </trkpt>
      <trkpt lat="49.65032" lon="5.63229">
        <ele>350.39999389648</ele>
        <time>2022-03-23T09:57:19.000Z</time>
      </trkpt>
      <trkpt lat="49.65008" lon="5.63192">
        <ele>347.79998779297</ele>
        <time>2022-03-23T09:57:25.000Z</time>
      </trkpt>
      <trkpt lat="49.6499" lon="5.63177">
        <ele>348.79998779297</ele>
        <time>2022-03-23T09:57:29.000Z</time>
      </trkpt>
      <trkpt lat="49.64982" lon="5.6317">
        <ele>349.39999389648</ele>
        <time>2022-03-23T09:57:31.000Z</time>
      </trkpt>
      <trkpt lat="49.64963" lon="5.63145">
        <ele>349.20001220703</ele>
        <time>2022-03-23T09:57:36.000Z</time>
      </trkpt>
      <trkpt lat="49.64956" lon="5.63134">
        <ele>349.39999389648</ele>
        <time>2022-03-23T09:57:38.000Z</time>
      </trkpt>
      <trkpt lat="49.64943" lon="5.63106">
        <ele>350.39999389648</ele>
        <time>2022-03-23T09:57:41.000Z</time>
      </trkpt>
      <trkpt lat="49.64939" lon="5.631">
        <ele>350.60000610352</ele>
        <time>2022-03-23T09:57:42.000Z</time>
      </trkpt>
      <trkpt lat="49.6493" lon="5.63095">
        <ele>350.79998779297</ele>
        <time>2022-03-23T09:57:44.000Z</time>
      </trkpt>
      <trkpt lat="49.64917" lon="5.63104">
        <ele>350.39999389648</ele>
        <time>2022-03-23T09:57:47.000Z</time>
      </trkpt>
      <trkpt lat="49.64912" lon="5.63108">
        <ele>350.39999389648</ele>
        <time>2022-03-23T09:57:48.000Z</time>
      </trkpt>
      <trkpt lat="49.64886" lon="5.63119">
        <ele>351</ele>
        <time>2022-03-23T09:57:53.000Z</time>
      </trkpt>
      <trkpt lat="49.64854" lon="5.6313">
        <ele>352.39999389648</ele>
        <time>2022-03-23T09:57:59.000Z</time>
      </trkpt>
      <trkpt lat="49.6485" lon="5.63131">
        <ele>352.60000610352</ele>
        <time>2022-03-23T09:58:00.000Z</time>
      </trkpt>
      <trkpt lat="49.64837" lon="5.63134">
        <ele>352.60000610352</ele>
        <time>2022-03-23T09:58:03.000Z</time>
      </trkpt>
      <trkpt lat="49.6482" lon="5.63138">
        <ele>352.60000610352</ele>
        <time>2022-03-23T09:58:06.000Z</time>
      </trkpt>
      <trkpt lat="49.64788" lon="5.63144">
        <ele>353.20001220703</ele>
        <time>2022-03-23T09:58:11.000Z</time>
      </trkpt>
      <trkpt lat="49.64761" lon="5.63146">
        <ele>354.79998779297</ele>
        <time>2022-03-23T09:58:16.000Z</time>
      </trkpt>
      <trkpt lat="49.6474" lon="5.63159">
        <ele>356</ele>
        <time>2022-03-23T09:58:20.000Z</time>
      </trkpt>
      <trkpt lat="49.64734" lon="5.63163">
        <ele>356</ele>
        <time>2022-03-23T09:58:21.000Z</time>
      </trkpt>
      <trkpt lat="49.64724" lon="5.63172">
        <ele>356</ele>
        <time>2022-03-23T09:58:23.000Z</time>
      </trkpt>
      <trkpt lat="49.64715" lon="5.63184">
        <ele>356.39999389648</ele>
        <time>2022-03-23T09:58:25.000Z</time>
      </trkpt>
      <trkpt lat="49.6471" lon="5.6319">
        <ele>356.60000610352</ele>
        <time>2022-03-23T09:58:26.000Z</time>
      </trkpt>
      <trkpt lat="49.64699" lon="5.6321">
        <ele>357.39999389648</ele>
        <time>2022-03-23T09:58:29.000Z</time>
      </trkpt>
      <trkpt lat="49.64683" lon="5.63235">
        <ele>359.20001220703</ele>
        <time>2022-03-23T09:58:33.000Z</time>
      </trkpt>
      <trkpt lat="49.6467" lon="5.63253">
        <ele>360</ele>
        <time>2022-03-23T09:58:36.000Z</time>
      </trkpt>
      <trkpt lat="49.64652" lon="5.63276">
        <ele>360.39999389648</ele>
        <time>2022-03-23T09:58:40.000Z</time>
      </trkpt>
      <trkpt lat="49.64648" lon="5.63282">
        <ele>360.60000610352</ele>
        <time>2022-03-23T09:58:41.000Z</time>
      </trkpt>
      <trkpt lat="49.64627" lon="5.63321">
        <ele>362.20001220703</ele>
        <time>2022-03-23T09:58:47.000Z</time>
      </trkpt>
      <trkpt lat="49.64611" lon="5.63357">
        <ele>363.39999389648</ele>
        <time>2022-03-23T09:58:52.000Z</time>
      </trkpt>
      <trkpt lat="49.64608" lon="5.63365">
        <ele>363.60000610352</ele>
        <time>2022-03-23T09:58:53.000Z</time>
      </trkpt>
      <trkpt lat="49.64596" lon="5.63393">
        <ele>364.60000610352</ele>
        <time>2022-03-23T09:58:57.000Z</time>
      </trkpt>
      <trkpt lat="49.64589" lon="5.63407">
        <ele>364.39999389648</ele>
        <time>2022-03-23T09:58:59.000Z</time>
      </trkpt>
      <trkpt lat="49.64577" lon="5.63434">
        <ele>362.60000610352</ele>
        <time>2022-03-23T09:59:04.000Z</time>
      </trkpt>
      <trkpt lat="49.6458" lon="5.63445">
        <ele>362</ele>
        <time>2022-03-23T09:59:06.000Z</time>
      </trkpt>
      <trkpt lat="49.64582" lon="5.6345">
        <ele>361.60000610352</ele>
        <time>2022-03-23T09:59:07.000Z</time>
      </trkpt>
      <trkpt lat="49.64595" lon="5.63482">
        <ele>360</ele>
        <time>2022-03-23T09:59:14.000Z</time>
      </trkpt>
      <trkpt lat="49.64597" lon="5.63505">
        <ele>359.39999389648</ele>
        <time>2022-03-23T09:59:17.000Z</time>
      </trkpt>
      <trkpt lat="49.64598" lon="5.63522">
        <ele>359</ele>
        <time>2022-03-23T09:59:19.000Z</time>
      </trkpt>
      <trkpt lat="49.64596" lon="5.63535">
        <ele>358.79998779297</ele>
        <time>2022-03-23T09:59:21.000Z</time>
      </trkpt>
      <trkpt lat="49.64589" lon="5.63562">
        <ele>359.20001220703</ele>
        <time>2022-03-23T09:59:25.000Z</time>
      </trkpt>
      <trkpt lat="49.64585" lon="5.63578">
        <ele>359.60000610352</ele>
        <time>2022-03-23T09:59:27.000Z</time>
      </trkpt>
      <trkpt lat="49.64581" lon="5.63591">
        <ele>360</ele>
        <time>2022-03-23T09:59:29.000Z</time>
      </trkpt>
      <trkpt lat="49.64573" lon="5.6361">
        <ele>360.39999389648</ele>
        <time>2022-03-23T09:59:32.000Z</time>
      </trkpt>
      <trkpt lat="49.64566" lon="5.63624">
        <ele>360.20001220703</ele>
        <time>2022-03-23T09:59:34.000Z</time>
      </trkpt>
      <trkpt lat="49.64558" lon="5.63654">
        <ele>360</ele>
        <time>2022-03-23T09:59:38.000Z</time>
      </trkpt>
      <trkpt lat="49.64558" lon="5.6366">
        <ele>360</ele>
        <time>2022-03-23T09:59:39.000Z</time>
      </trkpt>
      <trkpt lat="49.64559" lon="5.63673">
        <ele>360</ele>
        <time>2022-03-23T09:59:41.000Z</time>
      </trkpt>
      <trkpt lat="49.64564" lon="5.6369">
        <ele>360</ele>
        <time>2022-03-23T09:59:43.000Z</time>
      </trkpt>
      <trkpt lat="49.64571" lon="5.637">
        <ele>360</ele>
        <time>2022-03-23T09:59:45.000Z</time>
      </trkpt>
      <trkpt lat="49.64584" lon="5.63718">
        <ele>360</ele>
        <time>2022-03-23T09:59:48.000Z</time>
      </trkpt>
      <trkpt lat="49.64589" lon="5.63721">
        <ele>360</ele>
        <time>2022-03-23T09:59:49.000Z</time>
      </trkpt>
      <trkpt lat="49.64598" lon="5.63729">
        <ele>360.20001220703</ele>
        <time>2022-03-23T09:59:51.000Z</time>
      </trkpt>
      <trkpt lat="49.64607" lon="5.63738">
        <ele>360.20001220703</ele>
        <time>2022-03-23T09:59:53.000Z</time>
      </trkpt>
      <trkpt lat="49.64637" lon="5.63767">
        <ele>360.39999389648</ele>
        <time>2022-03-23T09:59:59.000Z</time>
      </trkpt>
      <trkpt lat="49.64646" lon="5.63776">
        <ele>360.39999389648</ele>
        <time>2022-03-23T10:00:01.000Z</time>
      </trkpt>
      <trkpt lat="49.64654" lon="5.63786">
        <ele>360.79998779297</ele>
        <time>2022-03-23T10:00:03.000Z</time>
      </trkpt>
      <trkpt lat="49.64675" lon="5.63812">
        <ele>362.20001220703</ele>
        <time>2022-03-23T10:00:08.000Z</time>
      </trkpt>
      <trkpt lat="49.64695" lon="5.63837">
        <ele>362.79998779297</ele>
        <time>2022-03-23T10:00:13.000Z</time>
      </trkpt>
      <trkpt lat="49.64704" lon="5.63848">
        <ele>363.20001220703</ele>
        <time>2022-03-23T10:00:15.000Z</time>
      </trkpt>
      <trkpt lat="49.64712" lon="5.6386">
        <ele>363.39999389648</ele>
        <time>2022-03-23T10:00:17.000Z</time>
      </trkpt>
      <trkpt lat="49.64723" lon="5.63889">
        <ele>363</ele>
        <time>2022-03-23T10:00:22.000Z</time>
      </trkpt>
      <trkpt lat="49.64723" lon="5.63902">
        <ele>363</ele>
        <time>2022-03-23T10:00:24.000Z</time>
      </trkpt>
      <trkpt lat="49.6472" lon="5.63915">
        <ele>363</ele>
        <time>2022-03-23T10:00:26.000Z</time>
      </trkpt>
      <trkpt lat="49.6471" lon="5.63935">
        <ele>362.79998779297</ele>
        <time>2022-03-23T10:00:29.000Z</time>
      </trkpt>
      <trkpt lat="49.647" lon="5.63961">
        <ele>361.60000610352</ele>
        <time>2022-03-23T10:00:33.000Z</time>
      </trkpt>
      <trkpt lat="49.64699" lon="5.63968">
        <ele>361.20001220703</ele>
        <time>2022-03-23T10:00:34.000Z</time>
      </trkpt>
      <trkpt lat="49.64698" lon="5.63976">
        <ele>361</ele>
        <time>2022-03-23T10:00:35.000Z</time>
      </trkpt>
      <trkpt lat="49.64697" lon="5.64003">
        <ele>361</ele>
        <time>2022-03-23T10:00:38.000Z</time>
      </trkpt>
      <trkpt lat="49.64698" lon="5.64023">
        <ele>360.39999389648</ele>
        <time>2022-03-23T10:00:40.000Z</time>
      </trkpt>
      <trkpt lat="49.64701" lon="5.64052">
        <ele>360.79998779297</ele>
        <time>2022-03-23T10:00:43.000Z</time>
      </trkpt>
      <trkpt lat="49.64704" lon="5.64092">
        <ele>362.20001220703</ele>
        <time>2022-03-23T10:00:48.000Z</time>
      </trkpt>
      <trkpt lat="49.64707" lon="5.64124">
        <ele>363</ele>
        <time>2022-03-23T10:00:52.000Z</time>
      </trkpt>
      <trkpt lat="49.64712" lon="5.64144">
        <ele>363.60000610352</ele>
        <time>2022-03-23T10:00:54.000Z</time>
      </trkpt>
      <trkpt lat="49.64718" lon="5.64165">
        <ele>363.20001220703</ele>
        <time>2022-03-23T10:00:56.000Z</time>
      </trkpt>
      <trkpt lat="49.64725" lon="5.64196">
        <ele>363</ele>
        <time>2022-03-23T10:00:59.000Z</time>
      </trkpt>
      <trkpt lat="49.64734" lon="5.64266">
        <ele>362.20001220703</ele>
        <time>2022-03-23T10:01:06.000Z</time>
      </trkpt>
      <trkpt lat="49.64749" lon="5.64322">
        <ele>362.79998779297</ele>
        <time>2022-03-23T10:01:12.000Z</time>
      </trkpt>
      <trkpt lat="49.64766" lon="5.64353">
        <ele>362</ele>
        <time>2022-03-23T10:01:16.000Z</time>
      </trkpt>
      <trkpt lat="49.64776" lon="5.6439">
        <ele>359.39999389648</ele>
        <time>2022-03-23T10:01:20.000Z</time>
      </trkpt>
      <trkpt lat="49.64779" lon="5.64407">
        <ele>358.60000610352</ele>
        <time>2022-03-23T10:01:22.000Z</time>
      </trkpt>
      <trkpt lat="49.64785" lon="5.64432">
        <ele>358</ele>
        <time>2022-03-23T10:01:25.000Z</time>
      </trkpt>
      <trkpt lat="49.64788" lon="5.6444">
        <ele>358</ele>
        <time>2022-03-23T10:01:26.000Z</time>
      </trkpt>
      <trkpt lat="49.64799" lon="5.64468">
        <ele>358</ele>
        <time>2022-03-23T10:01:30.000Z</time>
      </trkpt>
      <trkpt lat="49.64799" lon="5.64473">
        <ele>358.20001220703</ele>
        <time>2022-03-23T10:01:31.000Z</time>
      </trkpt>
      <trkpt lat="49.64796" lon="5.6448">
        <ele>358.60000610352</ele>
        <time>2022-03-23T10:01:34.000Z</time>
      </trkpt>
      <trkpt lat="49.64791" lon="5.6448">
        <ele>358.79998779297</ele>
        <time>2022-03-23T10:01:37.000Z</time>
      </trkpt>
      <trkpt lat="49.64787" lon="5.6448">
        <ele>359</ele>
        <time>2022-03-23T10:01:39.000Z</time>
      </trkpt>
      <trkpt lat="49.64773" lon="5.64488">
        <ele>359</ele>
        <time>2022-03-23T10:01:44.000Z</time>
      </trkpt>
      <trkpt lat="49.64769" lon="5.6449">
        <ele>359</ele>
        <time>2022-03-23T10:01:45.000Z</time>
      </trkpt>
      <trkpt lat="49.64747" lon="5.645">
        <ele>358.79998779297</ele>
        <time>2022-03-23T10:01:50.000Z</time>
      </trkpt>
      <trkpt lat="49.64735" lon="5.64506">
        <ele>359</ele>
        <time>2022-03-23T10:01:52.000Z</time>
      </trkpt>
      <trkpt lat="49.64729" lon="5.64511">
        <ele>359</ele>
        <time>2022-03-23T10:01:53.000Z</time>
      </trkpt>
      <trkpt lat="49.64719" lon="5.6452">
        <ele>359</ele>
        <time>2022-03-23T10:01:55.000Z</time>
      </trkpt>
      <trkpt lat="49.64708" lon="5.64536">
        <ele>359.20001220703</ele>
        <time>2022-03-23T10:01:59.000Z</time>
      </trkpt>
      <trkpt lat="49.64705" lon="5.64552">
        <ele>359.20001220703</ele>
        <time>2022-03-23T10:02:02.000Z</time>
      </trkpt>
      <trkpt lat="49.64706" lon="5.64559">
        <ele>359.20001220703</ele>
        <time>2022-03-23T10:02:03.000Z</time>
      </trkpt>
      <trkpt lat="49.64708" lon="5.64586">
        <ele>360.20001220703</ele>
        <time>2022-03-23T10:02:07.000Z</time>
      </trkpt>
      <trkpt lat="49.64702" lon="5.6461">
        <ele>360.79998779297</ele>
        <time>2022-03-23T10:02:11.000Z</time>
      </trkpt>
      <trkpt lat="49.647" lon="5.64617">
        <ele>361</ele>
        <time>2022-03-23T10:02:12.000Z</time>
      </trkpt>
      <trkpt lat="49.64691" lon="5.64645">
        <ele>361</ele>
        <time>2022-03-23T10:02:16.000Z</time>
      </trkpt>
      <trkpt lat="49.64688" lon="5.6465">
        <ele>361.20001220703</ele>
        <time>2022-03-23T10:02:17.000Z</time>
      </trkpt>
      <trkpt lat="49.64677" lon="5.64666">
        <ele>361.79998779297</ele>
        <time>2022-03-23T10:02:20.000Z</time>
      </trkpt>
      <trkpt lat="49.64665" lon="5.64679">
        <ele>361.79998779297</ele>
        <time>2022-03-23T10:02:23.000Z</time>
      </trkpt>
      <trkpt lat="49.64661" lon="5.64682">
        <ele>361.60000610352</ele>
        <time>2022-03-23T10:02:24.000Z</time>
      </trkpt>
      <trkpt lat="49.64653" lon="5.64697">
        <ele>362</ele>
        <time>2022-03-23T10:02:27.000Z</time>
      </trkpt>
      <trkpt lat="49.64651" lon="5.64733">
        <ele>360.79998779297</ele>
        <time>2022-03-23T10:02:32.000Z</time>
      </trkpt>
      <trkpt lat="49.64648" lon="5.64756">
        <ele>360</ele>
        <time>2022-03-23T10:02:35.000Z</time>
      </trkpt>
      <trkpt lat="49.64642" lon="5.64769">
        <ele>358.79998779297</ele>
        <time>2022-03-23T10:02:37.000Z</time>
      </trkpt>
      <trkpt lat="49.64632" lon="5.64785">
        <ele>357.79998779297</ele>
        <time>2022-03-23T10:02:40.000Z</time>
      </trkpt>
      <trkpt lat="49.64622" lon="5.64798">
        <ele>357.79998779297</ele>
        <time>2022-03-23T10:02:42.000Z</time>
      </trkpt>
      <trkpt lat="49.64613" lon="5.64803">
        <ele>358</ele>
        <time>2022-03-23T10:02:44.000Z</time>
      </trkpt>
      <trkpt lat="49.6461" lon="5.64807">
        <ele>358</ele>
        <time>2022-03-23T10:02:45.000Z</time>
      </trkpt>
      <trkpt lat="49.64597" lon="5.64823">
        <ele>358.39999389648</ele>
        <time>2022-03-23T10:02:48.000Z</time>
      </trkpt>
      <trkpt lat="49.64592" lon="5.6483">
        <ele>358.79998779297</ele>
        <time>2022-03-23T10:02:49.000Z</time>
      </trkpt>
      <trkpt lat="49.64584" lon="5.64839">
        <ele>358.79998779297</ele>
        <time>2022-03-23T10:02:51.000Z</time>
      </trkpt>
      <trkpt lat="49.64569" lon="5.64853">
        <ele>358.20001220703</ele>
        <time>2022-03-23T10:02:54.000Z</time>
      </trkpt>
      <trkpt lat="49.64556" lon="5.64866">
        <ele>357.79998779297</ele>
        <time>2022-03-23T10:02:57.000Z</time>
      </trkpt>
      <trkpt lat="49.64551" lon="5.64869">
        <ele>357.79998779297</ele>
        <time>2022-03-23T10:02:58.000Z</time>
      </trkpt>
      <trkpt lat="49.64547" lon="5.64872">
        <ele>357.79998779297</ele>
        <time>2022-03-23T10:02:59.000Z</time>
      </trkpt>
      <trkpt lat="49.64527" lon="5.64887">
        <ele>358</ele>
        <time>2022-03-23T10:03:04.000Z</time>
      </trkpt>
      <trkpt lat="49.64525" lon="5.64888">
        <ele>358</ele>
        <time>2022-03-23T10:03:05.000Z</time>
      </trkpt>
      <trkpt lat="49.64524" lon="5.64885">
        <ele>358</ele>
        <time>2022-03-23T10:03:07.000Z</time>
      </trkpt>
      <trkpt lat="49.64524" lon="5.64884">
        <ele>358</ele>
        <time>2022-03-23T10:03:08.000Z</time>
      </trkpt>
      <trkpt lat="49.64525" lon="5.64877">
        <ele>357.60000610352</ele>
        <time>2022-03-23T10:03:11.000Z</time>
      </trkpt>
      <trkpt lat="49.64529" lon="5.64856">
        <ele>357.39999389648</ele>
        <time>2022-03-23T10:03:15.000Z</time>
      </trkpt>
      <trkpt lat="49.64531" lon="5.64849">
        <ele>357.60000610352</ele>
        <time>2022-03-23T10:03:16.000Z</time>
      </trkpt>
      <trkpt lat="49.6454" lon="5.64805">
        <ele>358.20001220703</ele>
        <time>2022-03-23T10:03:22.000Z</time>
      </trkpt>
      <trkpt lat="49.64546" lon="5.64773">
        <ele>358.79998779297</ele>
        <time>2022-03-23T10:03:26.000Z</time>
      </trkpt>
      <trkpt lat="49.64549" lon="5.64755">
        <ele>360</ele>
        <time>2022-03-23T10:03:28.000Z</time>
      </trkpt>
      <trkpt lat="49.64557" lon="5.64709">
        <ele>362.39999389648</ele>
        <time>2022-03-23T10:03:33.000Z</time>
      </trkpt>
      <trkpt lat="49.64557" lon="5.64692">
        <ele>363</ele>
        <time>2022-03-23T10:03:35.000Z</time>
      </trkpt>
      <trkpt lat="49.64559" lon="5.64682">
        <ele>363</ele>
        <time>2022-03-23T10:03:36.000Z</time>
      </trkpt>
      <trkpt lat="49.64562" lon="5.64665">
        <ele>362.39999389648</ele>
        <time>2022-03-23T10:03:38.000Z</time>
      </trkpt>
      <trkpt lat="49.64564" lon="5.64656">
        <ele>361.79998779297</ele>
        <time>2022-03-23T10:03:39.000Z</time>
      </trkpt>
      <trkpt lat="49.64565" lon="5.64618">
        <ele>359.20001220703</ele>
        <time>2022-03-23T10:03:43.000Z</time>
      </trkpt>
      <trkpt lat="49.64566" lon="5.6459">
        <ele>358</ele>
        <time>2022-03-23T10:03:46.000Z</time>
      </trkpt>
      <trkpt lat="49.64564" lon="5.64572">
        <ele>358</ele>
        <time>2022-03-23T10:03:48.000Z</time>
      </trkpt>
      <trkpt lat="49.64561" lon="5.64555">
        <ele>358</ele>
        <time>2022-03-23T10:03:50.000Z</time>
      </trkpt>
      <trkpt lat="49.64556" lon="5.64531">
        <ele>358.39999389648</ele>
        <time>2022-03-23T10:03:53.000Z</time>
      </trkpt>
      <trkpt lat="49.64556" lon="5.64507">
        <ele>359.20001220703</ele>
        <time>2022-03-23T10:03:56.000Z</time>
      </trkpt>
      <trkpt lat="49.64555" lon="5.64499">
        <ele>359.39999389648</ele>
        <time>2022-03-23T10:03:57.000Z</time>
      </trkpt>
      <trkpt lat="49.64553" lon="5.64454">
        <ele>361</ele>
        <time>2022-03-23T10:04:02.000Z</time>
      </trkpt>
      <trkpt lat="49.64551" lon="5.64436">
        <ele>361.39999389648</ele>
        <time>2022-03-23T10:04:04.000Z</time>
      </trkpt>
      <trkpt lat="49.64549" lon="5.64408">
        <ele>362</ele>
        <time>2022-03-23T10:04:07.000Z</time>
      </trkpt>
      <trkpt lat="49.64548" lon="5.64391">
        <ele>362</ele>
        <time>2022-03-23T10:04:09.000Z</time>
      </trkpt>
      <trkpt lat="49.64547" lon="5.64365">
        <ele>362</ele>
        <time>2022-03-23T10:04:12.000Z</time>
      </trkpt>
      <trkpt lat="49.64547" lon="5.64356">
        <ele>361.60000610352</ele>
        <time>2022-03-23T10:04:13.000Z</time>
      </trkpt>
      <trkpt lat="49.64553" lon="5.643">
        <ele>361</ele>
        <time>2022-03-23T10:04:19.000Z</time>
      </trkpt>
      <trkpt lat="49.64558" lon="5.64252">
        <ele>361</ele>
        <time>2022-03-23T10:04:24.000Z</time>
      </trkpt>
      <trkpt lat="49.6456" lon="5.64243">
        <ele>361</ele>
        <time>2022-03-23T10:04:25.000Z</time>
      </trkpt>
      <trkpt lat="49.64565" lon="5.64199">
        <ele>362.20001220703</ele>
        <time>2022-03-23T10:04:30.000Z</time>
      </trkpt>
      <trkpt lat="49.64568" lon="5.64173">
        <ele>363.20001220703</ele>
        <time>2022-03-23T10:04:33.000Z</time>
      </trkpt>
      <trkpt lat="49.64573" lon="5.64145">
        <ele>363.79998779297</ele>
        <time>2022-03-23T10:04:36.000Z</time>
      </trkpt>
      <trkpt lat="49.64576" lon="5.64119">
        <ele>364.60000610352</ele>
        <time>2022-03-23T10:04:39.000Z</time>
      </trkpt>
      <trkpt lat="49.64577" lon="5.64102">
        <ele>364.20001220703</ele>
        <time>2022-03-23T10:04:41.000Z</time>
      </trkpt>
      <trkpt lat="49.64578" lon="5.64046">
        <ele>364.60000610352</ele>
        <time>2022-03-23T10:04:47.000Z</time>
      </trkpt>
      <trkpt lat="49.64576" lon="5.6397">
        <ele>363</ele>
        <time>2022-03-23T10:04:55.000Z</time>
      </trkpt>
      <trkpt lat="49.6457" lon="5.63912">
        <ele>360</ele>
        <time>2022-03-23T10:05:01.000Z</time>
      </trkpt>
      <trkpt lat="49.64568" lon="5.63902">
        <ele>360</ele>
        <time>2022-03-23T10:05:02.000Z</time>
      </trkpt>
      <trkpt lat="49.64559" lon="5.63855">
        <ele>360</ele>
        <time>2022-03-23T10:05:07.000Z</time>
      </trkpt>
      <trkpt lat="49.64555" lon="5.63838">
        <ele>360.20001220703</ele>
        <time>2022-03-23T10:05:09.000Z</time>
      </trkpt>
      <trkpt lat="49.64546" lon="5.63811">
        <ele>360.39999389648</ele>
        <time>2022-03-23T10:05:12.000Z</time>
      </trkpt>
      <trkpt lat="49.64543" lon="5.63802">
        <ele>360.60000610352</ele>
        <time>2022-03-23T10:05:13.000Z</time>
      </trkpt>
      <trkpt lat="49.64533" lon="5.63757">
        <ele>361</ele>
        <time>2022-03-23T10:05:18.000Z</time>
      </trkpt>
      <trkpt lat="49.64524" lon="5.63701">
        <ele>359.79998779297</ele>
        <time>2022-03-23T10:05:24.000Z</time>
      </trkpt>
      <trkpt lat="49.64525" lon="5.63657">
        <ele>358.39999389648</ele>
        <time>2022-03-23T10:05:29.000Z</time>
      </trkpt>
      <trkpt lat="49.64526" lon="5.63625">
        <ele>359</ele>
        <time>2022-03-23T10:05:33.000Z</time>
      </trkpt>
      <trkpt lat="49.64528" lon="5.63608">
        <ele>359.60000610352</ele>
        <time>2022-03-23T10:05:35.000Z</time>
      </trkpt>
      <trkpt lat="49.64531" lon="5.63562">
        <ele>358</ele>
        <time>2022-03-23T10:05:40.000Z</time>
      </trkpt>
      <trkpt lat="49.64535" lon="5.63512">
        <ele>359</ele>
        <time>2022-03-23T10:05:46.000Z</time>
      </trkpt>
      <trkpt lat="49.64535" lon="5.63497">
        <ele>359.20001220703</ele>
        <time>2022-03-23T10:05:48.000Z</time>
      </trkpt>
      <trkpt lat="49.64533" lon="5.63482">
        <ele>359.79998779297</ele>
        <time>2022-03-23T10:05:50.000Z</time>
      </trkpt>
      <trkpt lat="49.64528" lon="5.63459">
        <ele>360</ele>
        <time>2022-03-23T10:05:53.000Z</time>
      </trkpt>
      <trkpt lat="49.64526" lon="5.63452">
        <ele>360</ele>
        <time>2022-03-23T10:05:54.000Z</time>
      </trkpt>
      <trkpt lat="49.64524" lon="5.63444">
        <ele>360</ele>
        <time>2022-03-23T10:05:55.000Z</time>
      </trkpt>
      <trkpt lat="49.64521" lon="5.6342">
        <ele>361.20001220703</ele>
        <time>2022-03-23T10:05:58.000Z</time>
      </trkpt>
      <trkpt lat="49.64518" lon="5.63401">
        <ele>361.60000610352</ele>
        <time>2022-03-23T10:06:00.000Z</time>
      </trkpt>
      <trkpt lat="49.64517" lon="5.63384">
        <ele>362.20001220703</ele>
        <time>2022-03-23T10:06:02.000Z</time>
      </trkpt>
      <trkpt lat="49.64517" lon="5.63375">
        <ele>362.60000610352</ele>
        <time>2022-03-23T10:06:03.000Z</time>
      </trkpt>
      <trkpt lat="49.64517" lon="5.63357">
        <ele>363</ele>
        <time>2022-03-23T10:06:05.000Z</time>
      </trkpt>
      <trkpt lat="49.64514" lon="5.63341">
        <ele>362.79998779297</ele>
        <time>2022-03-23T10:06:07.000Z</time>
      </trkpt>
      <trkpt lat="49.64513" lon="5.63326">
        <ele>362.60000610352</ele>
        <time>2022-03-23T10:06:09.000Z</time>
      </trkpt>
      <trkpt lat="49.64511" lon="5.63318">
        <ele>362.60000610352</ele>
        <time>2022-03-23T10:06:10.000Z</time>
      </trkpt>
      <trkpt lat="49.64508" lon="5.63303">
        <ele>362.39999389648</ele>
        <time>2022-03-23T10:06:12.000Z</time>
      </trkpt>
      <trkpt lat="49.64505" lon="5.6329">
        <ele>362.79998779297</ele>
        <time>2022-03-23T10:06:14.000Z</time>
      </trkpt>
      <trkpt lat="49.64501" lon="5.6327">
        <ele>362.79998779297</ele>
        <time>2022-03-23T10:06:17.000Z</time>
      </trkpt>
      <trkpt lat="49.645" lon="5.63265">
        <ele>362.79998779297</ele>
        <time>2022-03-23T10:06:18.000Z</time>
      </trkpt>
      <trkpt lat="49.64498" lon="5.63261">
        <ele>362.60000610352</ele>
        <time>2022-03-23T10:06:19.000Z</time>
      </trkpt>
      <trkpt lat="49.64496" lon="5.6326">
        <ele>362.39999389648</ele>
        <time>2022-03-23T10:06:20.000Z</time>
      </trkpt>
      <trkpt lat="49.64481" lon="5.63264">
        <ele>361.39999389648</ele>
        <time>2022-03-23T10:06:24.000Z</time>
      </trkpt>
      <trkpt lat="49.64467" lon="5.63263">
        <ele>361.39999389648</ele>
        <time>2022-03-23T10:06:28.000Z</time>
      </trkpt>
      <trkpt lat="49.64453" lon="5.63251">
        <ele>361.79998779297</ele>
        <time>2022-03-23T10:06:32.000Z</time>
      </trkpt>
      <trkpt lat="49.6445" lon="5.63248">
        <ele>361.79998779297</ele>
        <time>2022-03-23T10:06:33.000Z</time>
      </trkpt>
      <trkpt lat="49.64431" lon="5.63233">
        <ele>361.79998779297</ele>
        <time>2022-03-23T10:06:38.000Z</time>
      </trkpt>
      <trkpt lat="49.64429" lon="5.63221">
        <ele>361.39999389648</ele>
        <time>2022-03-23T10:06:41.000Z</time>
      </trkpt>
      <trkpt lat="49.64432" lon="5.63195">
        <ele>359.79998779297</ele>
        <time>2022-03-23T10:06:46.000Z</time>
      </trkpt>
      <trkpt lat="49.64435" lon="5.63182">
        <ele>358.79998779297</ele>
        <time>2022-03-23T10:06:48.000Z</time>
      </trkpt>
      <trkpt lat="49.64438" lon="5.63158">
        <ele>357.39999389648</ele>
        <time>2022-03-23T10:06:51.000Z</time>
      </trkpt>
      <trkpt lat="49.64442" lon="5.63106">
        <ele>356.79998779297</ele>
        <time>2022-03-23T10:06:57.000Z</time>
      </trkpt>
      <trkpt lat="49.64443" lon="5.63098">
        <ele>357</ele>
        <time>2022-03-23T10:06:58.000Z</time>
      </trkpt>
      <trkpt lat="49.64443" lon="5.6309">
        <ele>357.39999389648</ele>
        <time>2022-03-23T10:06:59.000Z</time>
      </trkpt>
      <trkpt lat="49.64445" lon="5.63051">
        <ele>358.39999389648</ele>
        <time>2022-03-23T10:07:03.000Z</time>
      </trkpt>
      <trkpt lat="49.64449" lon="5.63005">
        <ele>358</ele>
        <time>2022-03-23T10:07:08.000Z</time>
      </trkpt>
      <trkpt lat="49.6445" lon="5.62996">
        <ele>357.79998779297</ele>
        <time>2022-03-23T10:07:09.000Z</time>
      </trkpt>
      <trkpt lat="49.64452" lon="5.62969">
        <ele>357.79998779297</ele>
        <time>2022-03-23T10:07:12.000Z</time>
      </trkpt>
      <trkpt lat="49.64452" lon="5.62951">
        <ele>357.79998779297</ele>
        <time>2022-03-23T10:07:14.000Z</time>
      </trkpt>
      <trkpt lat="49.64459" lon="5.62914">
        <ele>357.79998779297</ele>
        <time>2022-03-23T10:07:18.000Z</time>
      </trkpt>
      <trkpt lat="49.64475" lon="5.62855">
        <ele>359.39999389648</ele>
        <time>2022-03-23T10:07:25.000Z</time>
      </trkpt>
      <trkpt lat="49.64481" lon="5.62831">
        <ele>360.39999389648</ele>
        <time>2022-03-23T10:07:28.000Z</time>
      </trkpt>
      <trkpt lat="49.64485" lon="5.62805">
        <ele>361.79998779297</ele>
        <time>2022-03-23T10:07:31.000Z</time>
      </trkpt>
      <trkpt lat="49.64485" lon="5.62796">
        <ele>361.60000610352</ele>
        <time>2022-03-23T10:07:32.000Z</time>
      </trkpt>
      <trkpt lat="49.64486" lon="5.62764">
        <ele>361.60000610352</ele>
        <time>2022-03-23T10:07:36.000Z</time>
      </trkpt>
      <trkpt lat="49.64491" lon="5.62744">
        <ele>361.20001220703</ele>
        <time>2022-03-23T10:07:39.000Z</time>
      </trkpt>
      <trkpt lat="49.64493" lon="5.62736">
        <ele>361</ele>
        <time>2022-03-23T10:07:40.000Z</time>
      </trkpt>
      <trkpt lat="49.64501" lon="5.62706">
        <ele>361</ele>
        <time>2022-03-23T10:07:44.000Z</time>
      </trkpt>
      <trkpt lat="49.64515" lon="5.62672">
        <ele>361.60000610352</ele>
        <time>2022-03-23T10:07:49.000Z</time>
      </trkpt>
      <trkpt lat="49.6452" lon="5.62656">
        <ele>362.20001220703</ele>
        <time>2022-03-23T10:07:53.000Z</time>
      </trkpt>
      <trkpt lat="49.64515" lon="5.62654">
        <ele>361.79998779297</ele>
        <time>2022-03-23T10:07:55.000Z</time>
      </trkpt>
      <trkpt lat="49.64512" lon="5.62654">
        <ele>361.60000610352</ele>
        <time>2022-03-23T10:07:56.000Z</time>
      </trkpt>
      <trkpt lat="49.64508" lon="5.62652">
        <ele>361.20001220703</ele>
        <time>2022-03-23T10:07:57.000Z</time>
      </trkpt>
      <trkpt lat="49.64486" lon="5.62647">
        <ele>361</ele>
        <time>2022-03-23T10:08:02.000Z</time>
      </trkpt>
      <trkpt lat="49.64458" lon="5.62646">
        <ele>360.39999389648</ele>
        <time>2022-03-23T10:08:07.000Z</time>
      </trkpt>
      <trkpt lat="49.64423" lon="5.62643">
        <ele>358.20001220703</ele>
        <time>2022-03-23T10:08:13.000Z</time>
      </trkpt>
      <trkpt lat="49.64393" lon="5.62642">
        <ele>357</ele>
        <time>2022-03-23T10:08:18.000Z</time>
      </trkpt>
      <trkpt lat="49.6435" lon="5.62644">
        <ele>356</ele>
        <time>2022-03-23T10:08:25.000Z</time>
      </trkpt>
      <trkpt lat="49.6432" lon="5.62647">
        <ele>355.39999389648</ele>
        <time>2022-03-23T10:08:30.000Z</time>
      </trkpt>
      <trkpt lat="49.64315" lon="5.62646">
        <ele>355.20001220703</ele>
        <time>2022-03-23T10:08:31.000Z</time>
      </trkpt>
      <trkpt lat="49.64295" lon="5.62632">
        <ele>354</ele>
        <time>2022-03-23T10:08:35.000Z</time>
      </trkpt>
      <trkpt lat="49.64271" lon="5.62608">
        <ele>352.60000610352</ele>
        <time>2022-03-23T10:08:39.000Z</time>
      </trkpt>
      <trkpt lat="49.64265" lon="5.62601">
        <ele>352.39999389648</ele>
        <time>2022-03-23T10:08:40.000Z</time>
      </trkpt>
      <trkpt lat="49.64259" lon="5.62593">
        <ele>352.20001220703</ele>
        <time>2022-03-23T10:08:41.000Z</time>
      </trkpt>
      <trkpt lat="49.64247" lon="5.62578">
        <ele>352</ele>
        <time>2022-03-23T10:08:43.000Z</time>
      </trkpt>
      <trkpt lat="49.64242" lon="5.6257">
        <ele>352</ele>
        <time>2022-03-23T10:08:44.000Z</time>
      </trkpt>
      <trkpt lat="49.64241" lon="5.62565">
        <ele>352</ele>
        <time>2022-03-23T10:08:45.000Z</time>
      </trkpt>
      <trkpt lat="49.64243" lon="5.62556">
        <ele>352.20001220703</ele>
        <time>2022-03-23T10:08:47.000Z</time>
      </trkpt>
      <trkpt lat="49.64246" lon="5.62549">
        <ele>352.79998779297</ele>
        <time>2022-03-23T10:08:49.000Z</time>
      </trkpt>
      <trkpt lat="49.64252" lon="5.62537">
        <ele>353.60000610352</ele>
        <time>2022-03-23T10:08:52.000Z</time>
      </trkpt>
      <trkpt lat="49.64258" lon="5.62529">
        <ele>354</ele>
        <time>2022-03-23T10:08:54.000Z</time>
      </trkpt>
      <trkpt lat="49.64261" lon="5.62526">
        <ele>354.39999389648</ele>
        <time>2022-03-23T10:08:55.000Z</time>
      </trkpt>
      <trkpt lat="49.64283" lon="5.62509">
        <ele>354.60000610352</ele>
        <time>2022-03-23T10:09:00.000Z</time>
      </trkpt>
      <trkpt lat="49.64303" lon="5.62497">
        <ele>355.39999389648</ele>
        <time>2022-03-23T10:09:04.000Z</time>
      </trkpt>
      <trkpt lat="49.64318" lon="5.62485">
        <ele>356.20001220703</ele>
        <time>2022-03-23T10:09:07.000Z</time>
      </trkpt>
      <trkpt lat="49.64331" lon="5.62473">
        <ele>356.79998779297</ele>
        <time>2022-03-23T10:09:10.000Z</time>
      </trkpt>
      <trkpt lat="49.64339" lon="5.62467">
        <ele>357</ele>
        <time>2022-03-23T10:09:12.000Z</time>
      </trkpt>
      <trkpt lat="49.64354" lon="5.62455">
        <ele>357.60000610352</ele>
        <time>2022-03-23T10:09:15.000Z</time>
      </trkpt>
      <trkpt lat="49.64359" lon="5.6245">
        <ele>357.79998779297</ele>
        <time>2022-03-23T10:09:16.000Z</time>
      </trkpt>
      <trkpt lat="49.64389" lon="5.62419">
        <ele>360.60000610352</ele>
        <time>2022-03-23T10:09:22.000Z</time>
      </trkpt>
      <trkpt lat="49.644" lon="5.6241">
        <ele>361.20001220703</ele>
        <time>2022-03-23T10:09:24.000Z</time>
      </trkpt>
      <trkpt lat="49.64405" lon="5.62406">
        <ele>361.39999389648</ele>
        <time>2022-03-23T10:09:25.000Z</time>
      </trkpt>
      <trkpt lat="49.64422" lon="5.62398">
        <ele>362</ele>
        <time>2022-03-23T10:09:28.000Z</time>
      </trkpt>
      <trkpt lat="49.64432" lon="5.62392">
        <ele>361.20001220703</ele>
        <time>2022-03-23T10:09:30.000Z</time>
      </trkpt>
      <trkpt lat="49.6446" lon="5.6237">
        <ele>359.20001220703</ele>
        <time>2022-03-23T10:09:35.000Z</time>
      </trkpt>
      <trkpt lat="49.64466" lon="5.62368">
        <ele>359.20001220703</ele>
        <time>2022-03-23T10:09:36.000Z</time>
      </trkpt>
      <trkpt lat="49.64471" lon="5.62366">
        <ele>359</ele>
        <time>2022-03-23T10:09:37.000Z</time>
      </trkpt>
      <trkpt lat="49.64484" lon="5.62364">
        <ele>359.20001220703</ele>
        <time>2022-03-23T10:09:39.000Z</time>
      </trkpt>
      <trkpt lat="49.6449" lon="5.62362">
        <ele>359.39999389648</ele>
        <time>2022-03-23T10:09:40.000Z</time>
      </trkpt>
      <trkpt lat="49.64503" lon="5.62354">
        <ele>359.60000610352</ele>
        <time>2022-03-23T10:09:42.000Z</time>
      </trkpt>
      <trkpt lat="49.64508" lon="5.62348">
        <ele>359.79998779297</ele>
        <time>2022-03-23T10:09:43.000Z</time>
      </trkpt>
      <trkpt lat="49.64521" lon="5.62328">
        <ele>360.60000610352</ele>
        <time>2022-03-23T10:09:46.000Z</time>
      </trkpt>
      <trkpt lat="49.64527" lon="5.62314">
        <ele>360.60000610352</ele>
        <time>2022-03-23T10:09:48.000Z</time>
      </trkpt>
      <trkpt lat="49.6454" lon="5.62271">
        <ele>359.79998779297</ele>
        <time>2022-03-23T10:09:54.000Z</time>
      </trkpt>
      <trkpt lat="49.64542" lon="5.62264">
        <ele>360.20001220703</ele>
        <time>2022-03-23T10:09:55.000Z</time>
      </trkpt>
      <trkpt lat="49.64548" lon="5.62243">
        <ele>359.60000610352</ele>
        <time>2022-03-23T10:09:58.000Z</time>
      </trkpt>
      <trkpt lat="49.6455" lon="5.62235">
        <ele>359.60000610352</ele>
        <time>2022-03-23T10:09:59.000Z</time>
      </trkpt>
      <trkpt lat="49.64552" lon="5.62228">
        <ele>359.79998779297</ele>
        <time>2022-03-23T10:10:00.000Z</time>
      </trkpt>
      <trkpt lat="49.64559" lon="5.6221">
        <ele>359.39999389648</ele>
        <time>2022-03-23T10:10:03.000Z</time>
      </trkpt>
      <trkpt lat="49.64576" lon="5.62183">
        <ele>359</ele>
        <time>2022-03-23T10:10:08.000Z</time>
      </trkpt>
      <trkpt lat="49.64584" lon="5.62173">
        <ele>359</ele>
        <time>2022-03-23T10:10:10.000Z</time>
      </trkpt>
      <trkpt lat="49.64602" lon="5.62148">
        <ele>361.39999389648</ele>
        <time>2022-03-23T10:10:14.000Z</time>
      </trkpt>
      <trkpt lat="49.6461" lon="5.62134">
        <ele>362.79998779297</ele>
        <time>2022-03-23T10:10:16.000Z</time>
      </trkpt>
      <trkpt lat="49.6462" lon="5.62121">
        <ele>364</ele>
        <time>2022-03-23T10:10:18.000Z</time>
      </trkpt>
      <trkpt lat="49.64635" lon="5.62106">
        <ele>365</ele>
        <time>2022-03-23T10:10:21.000Z</time>
      </trkpt>
      <trkpt lat="49.64665" lon="5.6207">
        <ele>364.20001220703</ele>
        <time>2022-03-23T10:10:27.000Z</time>
      </trkpt>
      <trkpt lat="49.64689" lon="5.62044">
        <ele>364.20001220703</ele>
        <time>2022-03-23T10:10:32.000Z</time>
      </trkpt>
      <trkpt lat="49.64693" lon="5.6204">
        <ele>363.79998779297</ele>
        <time>2022-03-23T10:10:33.000Z</time>
      </trkpt>
      <trkpt lat="49.64696" lon="5.62034">
        <ele>363.39999389648</ele>
        <time>2022-03-23T10:10:34.000Z</time>
      </trkpt>
      <trkpt lat="49.64706" lon="5.6201">
        <ele>362.79998779297</ele>
        <time>2022-03-23T10:10:38.000Z</time>
      </trkpt>
      <trkpt lat="49.64709" lon="5.62003">
        <ele>362.20001220703</ele>
        <time>2022-03-23T10:10:39.000Z</time>
      </trkpt>
      <trkpt lat="49.64716" lon="5.61988">
        <ele>361.79998779297</ele>
        <time>2022-03-23T10:10:41.000Z</time>
      </trkpt>
      <trkpt lat="49.64724" lon="5.61972">
        <ele>361</ele>
        <time>2022-03-23T10:10:43.000Z</time>
      </trkpt>
      <trkpt lat="49.6475" lon="5.61921">
        <ele>361.79998779297</ele>
        <time>2022-03-23T10:10:49.000Z</time>
      </trkpt>
      <trkpt lat="49.64762" lon="5.61899">
        <ele>362</ele>
        <time>2022-03-23T10:10:52.000Z</time>
      </trkpt>
      <trkpt lat="49.64771" lon="5.61878">
        <ele>362.39999389648</ele>
        <time>2022-03-23T10:10:55.000Z</time>
      </trkpt>
      <trkpt lat="49.64774" lon="5.61874">
        <ele>362.60000610352</ele>
        <time>2022-03-23T10:10:56.000Z</time>
      </trkpt>
      <trkpt lat="49.64788" lon="5.61864">
        <ele>362.79998779297</ele>
        <time>2022-03-23T10:10:59.000Z</time>
      </trkpt>
      <trkpt lat="49.64798" lon="5.6186">
        <ele>362.60000610352</ele>
        <time>2022-03-23T10:11:01.000Z</time>
      </trkpt>
      <trkpt lat="49.64804" lon="5.61858">
        <ele>362.39999389648</ele>
        <time>2022-03-23T10:11:02.000Z</time>
      </trkpt>
      <trkpt lat="49.6481" lon="5.61856">
        <ele>362</ele>
        <time>2022-03-23T10:11:03.000Z</time>
      </trkpt>
      <trkpt lat="49.64822" lon="5.61853">
        <ele>362</ele>
        <time>2022-03-23T10:11:05.000Z</time>
      </trkpt>
      <trkpt lat="49.64835" lon="5.61851">
        <ele>361.60000610352</ele>
        <time>2022-03-23T10:11:07.000Z</time>
      </trkpt>
      <trkpt lat="49.64854" lon="5.6185">
        <ele>361.39999389648</ele>
        <time>2022-03-23T10:11:10.000Z</time>
      </trkpt>
      <trkpt lat="49.64892" lon="5.61864">
        <ele>363</ele>
        <time>2022-03-23T10:11:16.000Z</time>
      </trkpt>
      <trkpt lat="49.64906" lon="5.61873">
        <ele>363.60000610352</ele>
        <time>2022-03-23T10:11:18.000Z</time>
      </trkpt>
      <trkpt lat="49.64925" lon="5.61881">
        <ele>363.79998779297</ele>
        <time>2022-03-23T10:11:21.000Z</time>
      </trkpt>
      <trkpt lat="49.64939" lon="5.61882">
        <ele>363</ele>
        <time>2022-03-23T10:11:23.000Z</time>
      </trkpt>
      <trkpt lat="49.64953" lon="5.6188">
        <ele>362.60000610352</ele>
        <time>2022-03-23T10:11:25.000Z</time>
      </trkpt>
      <trkpt lat="49.64966" lon="5.61876">
        <ele>362</ele>
        <time>2022-03-23T10:11:27.000Z</time>
      </trkpt>
      <trkpt lat="49.64984" lon="5.61872">
        <ele>361.20001220703</ele>
        <time>2022-03-23T10:11:30.000Z</time>
      </trkpt>
      <trkpt lat="49.64991" lon="5.61872">
        <ele>360.79998779297</ele>
        <time>2022-03-23T10:11:31.000Z</time>
      </trkpt>
      <trkpt lat="49.65004" lon="5.6188">
        <ele>360</ele>
        <time>2022-03-23T10:11:33.000Z</time>
      </trkpt>
      <trkpt lat="49.65011" lon="5.61884">
        <ele>359.79998779297</ele>
        <time>2022-03-23T10:11:34.000Z</time>
      </trkpt>
      <trkpt lat="49.65023" lon="5.61896">
        <ele>359.39999389648</ele>
        <time>2022-03-23T10:11:36.000Z</time>
      </trkpt>
      <trkpt lat="49.65041" lon="5.61911">
        <ele>358.60000610352</ele>
        <time>2022-03-23T10:11:39.000Z</time>
      </trkpt>
      <trkpt lat="49.65083" lon="5.61939">
        <ele>357</ele>
        <time>2022-03-23T10:11:46.000Z</time>
      </trkpt>
      <trkpt lat="49.65106" lon="5.61938">
        <ele>356.60000610352</ele>
        <time>2022-03-23T10:11:50.000Z</time>
      </trkpt>
      <trkpt lat="49.65111" lon="5.61935">
        <ele>356.20001220703</ele>
        <time>2022-03-23T10:11:51.000Z</time>
      </trkpt>
      <trkpt lat="49.6512" lon="5.61932">
        <ele>355.60000610352</ele>
        <time>2022-03-23T10:11:53.000Z</time>
      </trkpt>
      <trkpt lat="49.65131" lon="5.6193">
        <ele>355.39999389648</ele>
        <time>2022-03-23T10:11:55.000Z</time>
      </trkpt>
      <trkpt lat="49.65142" lon="5.61929">
        <ele>355.39999389648</ele>
        <time>2022-03-23T10:11:57.000Z</time>
      </trkpt>
      <trkpt lat="49.65153" lon="5.6193">
        <ele>355.79998779297</ele>
        <time>2022-03-23T10:11:59.000Z</time>
      </trkpt>
      <trkpt lat="49.65158" lon="5.61931">
        <ele>356</ele>
        <time>2022-03-23T10:12:00.000Z</time>
      </trkpt>
      <trkpt lat="49.65184" lon="5.61928">
        <ele>356.79998779297</ele>
        <time>2022-03-23T10:12:05.000Z</time>
      </trkpt>
      <trkpt lat="49.65194" lon="5.61928">
        <ele>357.20001220703</ele>
        <time>2022-03-23T10:12:07.000Z</time>
      </trkpt>
      <trkpt lat="49.652" lon="5.61923">
        <ele>357.20001220703</ele>
        <time>2022-03-23T10:12:09.000Z</time>
      </trkpt>
      <trkpt lat="49.652" lon="5.61918">
        <ele>357.20001220703</ele>
        <time>2022-03-23T10:12:10.000Z</time>
      </trkpt>
      <trkpt lat="49.65198" lon="5.61893">
        <ele>357</ele>
        <time>2022-03-23T10:12:14.000Z</time>
      </trkpt>
      <trkpt lat="49.65196" lon="5.61885">
        <ele>356.79998779297</ele>
        <time>2022-03-23T10:12:15.000Z</time>
      </trkpt>
      <trkpt lat="49.65187" lon="5.61854">
        <ele>355.79998779297</ele>
        <time>2022-03-23T10:12:19.000Z</time>
      </trkpt>
      <trkpt lat="49.65182" lon="5.61839">
        <ele>355</ele>
        <time>2022-03-23T10:12:21.000Z</time>
      </trkpt>
      <trkpt lat="49.65178" lon="5.61823">
        <ele>354</ele>
        <time>2022-03-23T10:12:23.000Z</time>
      </trkpt>
      <trkpt lat="49.6517" lon="5.61798">
        <ele>352.60000610352</ele>
        <time>2022-03-23T10:12:26.000Z</time>
      </trkpt>
      <trkpt lat="49.65163" lon="5.61783">
        <ele>352.39999389648</ele>
        <time>2022-03-23T10:12:28.000Z</time>
      </trkpt>
      <trkpt lat="49.65153" lon="5.61753">
        <ele>352.60000610352</ele>
        <time>2022-03-23T10:12:32.000Z</time>
      </trkpt>
      <trkpt lat="49.65151" lon="5.61746">
        <ele>353.20001220703</ele>
        <time>2022-03-23T10:12:33.000Z</time>
      </trkpt>
      <trkpt lat="49.65148" lon="5.61739">
        <ele>353.79998779297</ele>
        <time>2022-03-23T10:12:34.000Z</time>
      </trkpt>
      <trkpt lat="49.65146" lon="5.61732">
        <ele>354.39999389648</ele>
        <time>2022-03-23T10:12:35.000Z</time>
      </trkpt>
      <trkpt lat="49.65134" lon="5.61715">
        <ele>355.39999389648</ele>
        <time>2022-03-23T10:12:38.000Z</time>
      </trkpt>
      <trkpt lat="49.65126" lon="5.61704">
        <ele>355.60000610352</ele>
        <time>2022-03-23T10:12:40.000Z</time>
      </trkpt>
      <trkpt lat="49.65105" lon="5.61675">
        <ele>355</ele>
        <time>2022-03-23T10:12:45.000Z</time>
      </trkpt>
      <trkpt lat="49.65083" lon="5.61646">
        <ele>355.60000610352</ele>
        <time>2022-03-23T10:12:50.000Z</time>
      </trkpt>
      <trkpt lat="49.65079" lon="5.61641">
        <ele>356</ele>
        <time>2022-03-23T10:12:51.000Z</time>
      </trkpt>
      <trkpt lat="49.65056" lon="5.6161">
        <ele>357</ele>
        <time>2022-03-23T10:12:56.000Z</time>
      </trkpt>
      <trkpt lat="49.65048" lon="5.61598">
        <ele>356.79998779297</ele>
        <time>2022-03-23T10:12:58.000Z</time>
      </trkpt>
      <trkpt lat="49.65031" lon="5.61577">
        <ele>357</ele>
        <time>2022-03-23T10:13:02.000Z</time>
      </trkpt>
      <trkpt lat="49.65023" lon="5.61567">
        <ele>358</ele>
        <time>2022-03-23T10:13:04.000Z</time>
      </trkpt>
      <trkpt lat="49.65006" lon="5.61545">
        <ele>360.39999389648</ele>
        <time>2022-03-23T10:13:08.000Z</time>
      </trkpt>
      <trkpt lat="49.64993" lon="5.6153">
        <ele>362.20001220703</ele>
        <time>2022-03-23T10:13:11.000Z</time>
      </trkpt>
      <trkpt lat="49.64985" lon="5.61521">
        <ele>363.79998779297</ele>
        <time>2022-03-23T10:13:13.000Z</time>
      </trkpt>
      <trkpt lat="49.64981" lon="5.61514">
        <ele>364.79998779297</ele>
        <time>2022-03-23T10:13:14.000Z</time>
      </trkpt>
      <trkpt lat="49.64976" lon="5.61502">
        <ele>366</ele>
        <time>2022-03-23T10:13:16.000Z</time>
      </trkpt>
      <trkpt lat="49.64978" lon="5.61481">
        <ele>365</ele>
        <time>2022-03-23T10:13:19.000Z</time>
      </trkpt>
      <trkpt lat="49.64984" lon="5.61458">
        <ele>365.60000610352</ele>
        <time>2022-03-23T10:13:22.000Z</time>
      </trkpt>
      <trkpt lat="49.64987" lon="5.6145">
        <ele>365.60000610352</ele>
        <time>2022-03-23T10:13:23.000Z</time>
      </trkpt>
      <trkpt lat="49.64998" lon="5.61419">
        <ele>366</ele>
        <time>2022-03-23T10:13:27.000Z</time>
      </trkpt>
      <trkpt lat="49.65003" lon="5.61403">
        <ele>366.60000610352</ele>
        <time>2022-03-23T10:13:29.000Z</time>
      </trkpt>
      <trkpt lat="49.65011" lon="5.61369">
        <ele>366.20001220703</ele>
        <time>2022-03-23T10:13:33.000Z</time>
      </trkpt>
      <trkpt lat="49.65013" lon="5.61355">
        <ele>366</ele>
        <time>2022-03-23T10:13:35.000Z</time>
      </trkpt>
      <trkpt lat="49.65013" lon="5.61348">
        <ele>366</ele>
        <time>2022-03-23T10:13:36.000Z</time>
      </trkpt>
      <trkpt lat="49.65014" lon="5.61323">
        <ele>365.60000610352</ele>
        <time>2022-03-23T10:13:39.000Z</time>
      </trkpt>
      <trkpt lat="49.65015" lon="5.61315">
        <ele>365.39999389648</ele>
        <time>2022-03-23T10:13:40.000Z</time>
      </trkpt>
      <trkpt lat="49.65019" lon="5.61278">
        <ele>364.79998779297</ele>
        <time>2022-03-23T10:13:44.000Z</time>
      </trkpt>
      <trkpt lat="49.65023" lon="5.6123">
        <ele>365.39999389648</ele>
        <time>2022-03-23T10:13:49.000Z</time>
      </trkpt>
      <trkpt lat="49.65023" lon="5.61209">
        <ele>365.79998779297</ele>
        <time>2022-03-23T10:13:51.000Z</time>
      </trkpt>
      <trkpt lat="49.65024" lon="5.61199">
        <ele>366.20001220703</ele>
        <time>2022-03-23T10:13:52.000Z</time>
      </trkpt>
      <trkpt lat="49.65027" lon="5.61163">
        <ele>366.60000610352</ele>
        <time>2022-03-23T10:13:56.000Z</time>
      </trkpt>
      <trkpt lat="49.6503" lon="5.61134">
        <ele>366.79998779297</ele>
        <time>2022-03-23T10:13:59.000Z</time>
      </trkpt>
      <trkpt lat="49.65033" lon="5.61115">
        <ele>367.79998779297</ele>
        <time>2022-03-23T10:14:01.000Z</time>
      </trkpt>
      <trkpt lat="49.65037" lon="5.61086">
        <ele>367.39999389648</ele>
        <time>2022-03-23T10:14:04.000Z</time>
      </trkpt>
      <trkpt lat="49.65036" lon="5.61066">
        <ele>368.39999389648</ele>
        <time>2022-03-23T10:14:06.000Z</time>
      </trkpt>
      <trkpt lat="49.65036" lon="5.61047">
        <ele>368.20001220703</ele>
        <time>2022-03-23T10:14:08.000Z</time>
      </trkpt>
      <trkpt lat="49.65039" lon="5.6102">
        <ele>367.39999389648</ele>
        <time>2022-03-23T10:14:11.000Z</time>
      </trkpt>
      <trkpt lat="49.65052" lon="5.60968">
        <ele>368.60000610352</ele>
        <time>2022-03-23T10:14:17.000Z</time>
      </trkpt>
      <trkpt lat="49.65063" lon="5.60926">
        <ele>369.79998779297</ele>
        <time>2022-03-23T10:14:22.000Z</time>
      </trkpt>
      <trkpt lat="49.65066" lon="5.6091">
        <ele>369</ele>
        <time>2022-03-23T10:14:24.000Z</time>
      </trkpt>
      <trkpt lat="49.65073" lon="5.60881">
        <ele>366.79998779297</ele>
        <time>2022-03-23T10:14:28.000Z</time>
      </trkpt>
      <trkpt lat="49.65072" lon="5.60874">
        <ele>366.20001220703</ele>
        <time>2022-03-23T10:14:29.000Z</time>
      </trkpt>
      <trkpt lat="49.6507" lon="5.60863">
        <ele>365.20001220703</ele>
        <time>2022-03-23T10:14:31.000Z</time>
      </trkpt>
      <trkpt lat="49.65068" lon="5.60859">
        <ele>365</ele>
        <time>2022-03-23T10:14:32.000Z</time>
      </trkpt>
      <trkpt lat="49.65058" lon="5.6084">
        <ele>364.39999389648</ele>
        <time>2022-03-23T10:14:35.000Z</time>
      </trkpt>
      <trkpt lat="49.65055" lon="5.60832">
        <ele>363.79998779297</ele>
        <time>2022-03-23T10:14:36.000Z</time>
      </trkpt>
      <trkpt lat="49.6505" lon="5.60807">
        <ele>362.20001220703</ele>
        <time>2022-03-23T10:14:39.000Z</time>
      </trkpt>
      <trkpt lat="49.65048" lon="5.60789">
        <ele>361.79998779297</ele>
        <time>2022-03-23T10:14:41.000Z</time>
      </trkpt>
      <trkpt lat="49.65044" lon="5.60747">
        <ele>361.39999389648</ele>
        <time>2022-03-23T10:14:46.000Z</time>
      </trkpt>
      <trkpt lat="49.65044" lon="5.60739">
        <ele>361.20001220703</ele>
        <time>2022-03-23T10:14:47.000Z</time>
      </trkpt>
      <trkpt lat="49.65044" lon="5.60722">
        <ele>360.79998779297</ele>
        <time>2022-03-23T10:14:49.000Z</time>
      </trkpt>
      <trkpt lat="49.65044" lon="5.60714">
        <ele>361</ele>
        <time>2022-03-23T10:14:50.000Z</time>
      </trkpt>
      <trkpt lat="49.65044" lon="5.6067">
        <ele>361.39999389648</ele>
        <time>2022-03-23T10:14:56.000Z</time>
      </trkpt>
      <trkpt lat="49.6504" lon="5.60637">
        <ele>361</ele>
        <time>2022-03-23T10:15:00.000Z</time>
      </trkpt>
      <trkpt lat="49.6504" lon="5.60582">
        <ele>361.39999389648</ele>
        <time>2022-03-23T10:15:06.000Z</time>
      </trkpt>
      <trkpt lat="49.65037" lon="5.60565">
        <ele>360.79998779297</ele>
        <time>2022-03-23T10:15:08.000Z</time>
      </trkpt>
      <trkpt lat="49.6503" lon="5.60538">
        <ele>360.20001220703</ele>
        <time>2022-03-23T10:15:11.000Z</time>
      </trkpt>
      <trkpt lat="49.65019" lon="5.60504">
        <ele>359.60000610352</ele>
        <time>2022-03-23T10:15:15.000Z</time>
      </trkpt>
      <trkpt lat="49.65015" lon="5.60485">
        <ele>359.60000610352</ele>
        <time>2022-03-23T10:15:17.000Z</time>
      </trkpt>
      <trkpt lat="49.65012" lon="5.60451">
        <ele>358.20001220703</ele>
        <time>2022-03-23T10:15:21.000Z</time>
      </trkpt>
      <trkpt lat="49.65012" lon="5.60443">
        <ele>358.20001220703</ele>
        <time>2022-03-23T10:15:22.000Z</time>
      </trkpt>
      <trkpt lat="49.65014" lon="5.60429">
        <ele>358.39999389648</ele>
        <time>2022-03-23T10:15:24.000Z</time>
      </trkpt>
      <trkpt lat="49.6502" lon="5.60418">
        <ele>357.79998779297</ele>
        <time>2022-03-23T10:15:26.000Z</time>
      </trkpt>
      <trkpt lat="49.65024" lon="5.60414">
        <ele>357.60000610352</ele>
        <time>2022-03-23T10:15:27.000Z</time>
      </trkpt>
      <trkpt lat="49.65034" lon="5.60407">
        <ele>357.60000610352</ele>
        <time>2022-03-23T10:15:29.000Z</time>
      </trkpt>
      <trkpt lat="49.65039" lon="5.60403">
        <ele>357.79998779297</ele>
        <time>2022-03-23T10:15:30.000Z</time>
      </trkpt>
      <trkpt lat="49.65061" lon="5.60377">
        <ele>358</ele>
        <time>2022-03-23T10:15:35.000Z</time>
      </trkpt>
      <trkpt lat="49.65092" lon="5.6033">
        <ele>356</ele>
        <time>2022-03-23T10:15:42.000Z</time>
      </trkpt>
      <trkpt lat="49.65125" lon="5.6029">
        <ele>356.79998779297</ele>
        <time>2022-03-23T10:15:49.000Z</time>
      </trkpt>
      <trkpt lat="49.6516" lon="5.60249">
        <ele>357.39999389648</ele>
        <time>2022-03-23T10:15:56.000Z</time>
      </trkpt>
      <trkpt lat="49.65173" lon="5.60227">
        <ele>357.39999389648</ele>
        <time>2022-03-23T10:15:59.000Z</time>
      </trkpt>
      <trkpt lat="49.65187" lon="5.60208">
        <ele>358.20001220703</ele>
        <time>2022-03-23T10:16:02.000Z</time>
      </trkpt>
      <trkpt lat="49.65197" lon="5.60197">
        <ele>358.79998779297</ele>
        <time>2022-03-23T10:16:04.000Z</time>
      </trkpt>
      <trkpt lat="49.6522" lon="5.6018">
        <ele>360</ele>
        <time>2022-03-23T10:16:08.000Z</time>
      </trkpt>
      <trkpt lat="49.6527" lon="5.60138">
        <ele>363.79998779297</ele>
        <time>2022-03-23T10:16:17.000Z</time>
      </trkpt>
      <trkpt lat="49.65312" lon="5.60099">
        <ele>363.60000610352</ele>
        <time>2022-03-23T10:16:25.000Z</time>
      </trkpt>
      <trkpt lat="49.65328" lon="5.60082">
        <ele>363</ele>
        <time>2022-03-23T10:16:28.000Z</time>
      </trkpt>
      <trkpt lat="49.6535" lon="5.60061">
        <ele>362</ele>
        <time>2022-03-23T10:16:32.000Z</time>
      </trkpt>
      <trkpt lat="49.65366" lon="5.60046">
        <ele>362.60000610352</ele>
        <time>2022-03-23T10:16:35.000Z</time>
      </trkpt>
      <trkpt lat="49.65401" lon="5.60016">
        <ele>365.20001220703</ele>
        <time>2022-03-23T10:16:41.000Z</time>
      </trkpt>
      <trkpt lat="49.65407" lon="5.60011">
        <ele>365.60000610352</ele>
        <time>2022-03-23T10:16:42.000Z</time>
      </trkpt>
      <trkpt lat="49.65438" lon="5.59982">
        <ele>366.20001220703</ele>
        <time>2022-03-23T10:16:47.000Z</time>
      </trkpt>
      <trkpt lat="49.65451" lon="5.59969">
        <ele>365</ele>
        <time>2022-03-23T10:16:49.000Z</time>
      </trkpt>
      <trkpt lat="49.65475" lon="5.59941">
        <ele>360.39999389648</ele>
        <time>2022-03-23T10:16:53.000Z</time>
      </trkpt>
      <trkpt lat="49.65492" lon="5.59918">
        <ele>359.39999389648</ele>
        <time>2022-03-23T10:16:56.000Z</time>
      </trkpt>
      <trkpt lat="49.65513" lon="5.59888">
        <ele>357.39999389648</ele>
        <time>2022-03-23T10:17:00.000Z</time>
      </trkpt>
      <trkpt lat="49.65527" lon="5.59865">
        <ele>358</ele>
        <time>2022-03-23T10:17:03.000Z</time>
      </trkpt>
      <trkpt lat="49.65552" lon="5.59814">
        <ele>358.39999389648</ele>
        <time>2022-03-23T10:17:09.000Z</time>
      </trkpt>
      <trkpt lat="49.65568" lon="5.59779">
        <ele>358.39999389648</ele>
        <time>2022-03-23T10:17:13.000Z</time>
      </trkpt>
      <trkpt lat="49.65581" lon="5.59751">
        <ele>358.39999389648</ele>
        <time>2022-03-23T10:17:16.000Z</time>
      </trkpt>
      <trkpt lat="49.6561" lon="5.59705">
        <ele>357.20001220703</ele>
        <time>2022-03-23T10:17:22.000Z</time>
      </trkpt>
      <trkpt lat="49.65629" lon="5.59679">
        <ele>358.20001220703</ele>
        <time>2022-03-23T10:17:26.000Z</time>
      </trkpt>
      <trkpt lat="49.65641" lon="5.59668">
        <ele>358.39999389648</ele>
        <time>2022-03-23T10:17:28.000Z</time>
      </trkpt>
      <trkpt lat="49.65669" lon="5.59645">
        <ele>358.79998779297</ele>
        <time>2022-03-23T10:17:33.000Z</time>
      </trkpt>
      <trkpt lat="49.65698" lon="5.59633">
        <ele>358.60000610352</ele>
        <time>2022-03-23T10:17:38.000Z</time>
      </trkpt>
      <trkpt lat="49.65704" lon="5.5963">
        <ele>358.60000610352</ele>
        <time>2022-03-23T10:17:39.000Z</time>
      </trkpt>
      <trkpt lat="49.65736" lon="5.59604">
        <ele>359.39999389648</ele>
        <time>2022-03-23T10:17:45.000Z</time>
      </trkpt>
      <trkpt lat="49.65768" lon="5.59567">
        <ele>356.39999389648</ele>
        <time>2022-03-23T10:17:51.000Z</time>
      </trkpt>
      <trkpt lat="49.65802" lon="5.59523">
        <ele>352.79998779297</ele>
        <time>2022-03-23T10:17:57.000Z</time>
      </trkpt>
      <trkpt lat="49.65815" lon="5.59512">
        <ele>352.20001220703</ele>
        <time>2022-03-23T10:17:59.000Z</time>
      </trkpt>
      <trkpt lat="49.65829" lon="5.59514">
        <ele>350.79998779297</ele>
        <time>2022-03-23T10:18:01.000Z</time>
      </trkpt>
      <trkpt lat="49.65836" lon="5.59518">
        <ele>350.20001220703</ele>
        <time>2022-03-23T10:18:02.000Z</time>
      </trkpt>
      <trkpt lat="49.65842" lon="5.59522">
        <ele>349.79998779297</ele>
        <time>2022-03-23T10:18:03.000Z</time>
      </trkpt>
      <trkpt lat="49.65853" lon="5.59531">
        <ele>349.39999389648</ele>
        <time>2022-03-23T10:18:05.000Z</time>
      </trkpt>
      <trkpt lat="49.65886" lon="5.59562">
        <ele>349.79998779297</ele>
        <time>2022-03-23T10:18:12.000Z</time>
      </trkpt>
      <trkpt lat="49.65891" lon="5.59566">
        <ele>350.20001220703</ele>
        <time>2022-03-23T10:18:13.000Z</time>
      </trkpt>
      <trkpt lat="49.65906" lon="5.59579">
        <ele>350.79998779297</ele>
        <time>2022-03-23T10:18:16.000Z</time>
      </trkpt>
      <trkpt lat="49.65918" lon="5.59587">
        <ele>351</ele>
        <time>2022-03-23T10:18:18.000Z</time>
      </trkpt>
      <trkpt lat="49.65953" lon="5.59606">
        <ele>352.39999389648</ele>
        <time>2022-03-23T10:18:24.000Z</time>
      </trkpt>
      <trkpt lat="49.65998" lon="5.5962">
        <ele>356.79998779297</ele>
        <time>2022-03-23T10:18:31.000Z</time>
      </trkpt>
      <trkpt lat="49.66053" lon="5.59637">
        <ele>350.60000610352</ele>
        <time>2022-03-23T10:18:39.000Z</time>
      </trkpt>
      <trkpt lat="49.66066" lon="5.5964">
        <ele>348.39999389648</ele>
        <time>2022-03-23T10:18:41.000Z</time>
      </trkpt>
      <trkpt lat="49.66114" lon="5.59656">
        <ele>347</ele>
        <time>2022-03-23T10:18:48.000Z</time>
      </trkpt>
      <trkpt lat="49.66121" lon="5.59658">
        <ele>347.39999389648</ele>
        <time>2022-03-23T10:18:49.000Z</time>
      </trkpt>
      <trkpt lat="49.66148" lon="5.59664">
        <ele>348.39999389648</ele>
        <time>2022-03-23T10:18:53.000Z</time>
      </trkpt>
      <trkpt lat="49.66161" lon="5.59665">
        <ele>347.60000610352</ele>
        <time>2022-03-23T10:18:55.000Z</time>
      </trkpt>
      <trkpt lat="49.66206" lon="5.5967">
        <ele>343.60000610352</ele>
        <time>2022-03-23T10:19:02.000Z</time>
      </trkpt>
      <trkpt lat="49.66219" lon="5.59671">
        <ele>342.60000610352</ele>
        <time>2022-03-23T10:19:04.000Z</time>
      </trkpt>
      <trkpt lat="49.66245" lon="5.59672">
        <ele>342</ele>
        <time>2022-03-23T10:19:08.000Z</time>
      </trkpt>
      <trkpt lat="49.6626" lon="5.59673">
        <ele>342</ele>
        <time>2022-03-23T10:19:10.000Z</time>
      </trkpt>
      <trkpt lat="49.66303" lon="5.59675">
        <ele>341.20001220703</ele>
        <time>2022-03-23T10:19:16.000Z</time>
      </trkpt>
      <trkpt lat="49.66331" lon="5.59677">
        <ele>339.79998779297</ele>
        <time>2022-03-23T10:19:20.000Z</time>
      </trkpt>
      <trkpt lat="49.66367" lon="5.59677">
        <ele>338</ele>
        <time>2022-03-23T10:19:25.000Z</time>
      </trkpt>
      <trkpt lat="49.66386" lon="5.59677">
        <ele>338.79998779297</ele>
        <time>2022-03-23T10:19:28.000Z</time>
      </trkpt>
      <trkpt lat="49.66398" lon="5.59683">
        <ele>339.20001220703</ele>
        <time>2022-03-23T10:19:30.000Z</time>
      </trkpt>
      <trkpt lat="49.66404" lon="5.59686">
        <ele>339.79998779297</ele>
        <time>2022-03-23T10:19:31.000Z</time>
      </trkpt>
      <trkpt lat="49.66433" lon="5.59707">
        <ele>341.79998779297</ele>
        <time>2022-03-23T10:19:36.000Z</time>
      </trkpt>
      <trkpt lat="49.6648" lon="5.5973">
        <ele>343</ele>
        <time>2022-03-23T10:19:44.000Z</time>
      </trkpt>
      <trkpt lat="49.66527" lon="5.59747">
        <ele>341</ele>
        <time>2022-03-23T10:19:52.000Z</time>
      </trkpt>
      <trkpt lat="49.66577" lon="5.59764">
        <ele>342.79998779297</ele>
        <time>2022-03-23T10:20:00.000Z</time>
      </trkpt>
      <trkpt lat="49.66583" lon="5.59766">
        <ele>343.20001220703</ele>
        <time>2022-03-23T10:20:01.000Z</time>
      </trkpt>
      <trkpt lat="49.6662" lon="5.5978">
        <ele>342.79998779297</ele>
        <time>2022-03-23T10:20:07.000Z</time>
      </trkpt>
      <trkpt lat="49.66672" lon="5.59801">
        <ele>340.79998779297</ele>
        <time>2022-03-23T10:20:16.000Z</time>
      </trkpt>
      <trkpt lat="49.66713" lon="5.59816">
        <ele>341.79998779297</ele>
        <time>2022-03-23T10:20:23.000Z</time>
      </trkpt>
      <trkpt lat="49.66756" lon="5.59833">
        <ele>343</ele>
        <time>2022-03-23T10:20:31.000Z</time>
      </trkpt>
      <trkpt lat="49.66766" lon="5.59843">
        <ele>342</ele>
        <time>2022-03-23T10:20:34.000Z</time>
      </trkpt>
      <trkpt lat="49.66767" lon="5.59873">
        <ele>341</ele>
        <time>2022-03-23T10:20:38.000Z</time>
      </trkpt>
      <trkpt lat="49.66766" lon="5.59947">
        <ele>341.60000610352</ele>
        <time>2022-03-23T10:20:46.000Z</time>
      </trkpt>
      <trkpt lat="49.66765" lon="5.59957">
        <ele>341.60000610352</ele>
        <time>2022-03-23T10:20:47.000Z</time>
      </trkpt>
      <trkpt lat="49.66766" lon="5.60002">
        <ele>341</ele>
        <time>2022-03-23T10:20:52.000Z</time>
      </trkpt>
      <trkpt lat="49.66769" lon="5.60009">
        <ele>341</ele>
        <time>2022-03-23T10:20:53.000Z</time>
      </trkpt>
      <trkpt lat="49.66781" lon="5.60019">
        <ele>341</ele>
        <time>2022-03-23T10:20:56.000Z</time>
      </trkpt>
      <trkpt lat="49.66795" lon="5.60013">
        <ele>341.39999389648</ele>
        <time>2022-03-23T10:20:59.000Z</time>
      </trkpt>
      <trkpt lat="49.668" lon="5.6001">
        <ele>341.20001220703</ele>
        <time>2022-03-23T10:21:00.000Z</time>
      </trkpt>
      <trkpt lat="49.6683" lon="5.60001">
        <ele>341</ele>
        <time>2022-03-23T10:21:06.000Z</time>
      </trkpt>
      <trkpt lat="49.66836" lon="5.6">
        <ele>341</ele>
        <time>2022-03-23T10:21:07.000Z</time>
      </trkpt>
      <trkpt lat="49.66867" lon="5.59999">
        <ele>340</ele>
        <time>2022-03-23T10:21:12.000Z</time>
      </trkpt>
      <trkpt lat="49.66904" lon="5.60005">
        <ele>341.39999389648</ele>
        <time>2022-03-23T10:21:18.000Z</time>
      </trkpt>
      <trkpt lat="49.66935" lon="5.60007">
        <ele>342</ele>
        <time>2022-03-23T10:21:23.000Z</time>
      </trkpt>
      <trkpt lat="49.6696" lon="5.60008">
        <ele>342.20001220703</ele>
        <time>2022-03-23T10:21:27.000Z</time>
      </trkpt>
      <trkpt lat="49.67016" lon="5.60011">
        <ele>342.39999389648</ele>
        <time>2022-03-23T10:21:36.000Z</time>
      </trkpt>
      <trkpt lat="49.67052" lon="5.60012">
        <ele>342.60000610352</ele>
        <time>2022-03-23T10:21:42.000Z</time>
      </trkpt>
      <trkpt lat="49.67057" lon="5.60017">
        <ele>342.39999389648</ele>
        <time>2022-03-23T10:21:43.000Z</time>
      </trkpt>
      <trkpt lat="49.6706" lon="5.60033">
        <ele>342</ele>
        <time>2022-03-23T10:21:45.000Z</time>
      </trkpt>
      <trkpt lat="49.67062" lon="5.60072">
        <ele>340.60000610352</ele>
        <time>2022-03-23T10:21:49.000Z</time>
      </trkpt>
      <trkpt lat="49.67064" lon="5.60082">
        <ele>340.20001220703</ele>
        <time>2022-03-23T10:21:50.000Z</time>
      </trkpt>
      <trkpt lat="49.67072" lon="5.60098">
        <ele>340.39999389648</ele>
        <time>2022-03-23T10:21:52.000Z</time>
      </trkpt>
      <trkpt lat="49.67083" lon="5.60111">
        <ele>340.79998779297</ele>
        <time>2022-03-23T10:21:54.000Z</time>
      </trkpt>
      <trkpt lat="49.67093" lon="5.60124">
        <ele>340.39999389648</ele>
        <time>2022-03-23T10:21:56.000Z</time>
      </trkpt>
      <trkpt lat="49.67098" lon="5.6013">
        <ele>340</ele>
        <time>2022-03-23T10:21:57.000Z</time>
      </trkpt>
      <trkpt lat="49.67103" lon="5.60138">
        <ele>339.60000610352</ele>
        <time>2022-03-23T10:21:58.000Z</time>
      </trkpt>
      <trkpt lat="49.6711" lon="5.60158">
        <ele>338.60000610352</ele>
        <time>2022-03-23T10:22:00.000Z</time>
      </trkpt>
      <trkpt lat="49.67115" lon="5.60192">
        <ele>338</ele>
        <time>2022-03-23T10:22:03.000Z</time>
      </trkpt>
      <trkpt lat="49.67116" lon="5.60203">
        <ele>337.79998779297</ele>
        <time>2022-03-23T10:22:04.000Z</time>
      </trkpt>
      <trkpt lat="49.67123" lon="5.6026">
        <ele>336</ele>
        <time>2022-03-23T10:22:09.000Z</time>
      </trkpt>
      <trkpt lat="49.67127" lon="5.60307">
        <ele>336</ele>
        <time>2022-03-23T10:22:13.000Z</time>
      </trkpt>
      <trkpt lat="49.67126" lon="5.60319">
        <ele>335.60000610352</ele>
        <time>2022-03-23T10:22:14.000Z</time>
      </trkpt>
      <trkpt lat="49.67125" lon="5.60331">
        <ele>335.60000610352</ele>
        <time>2022-03-23T10:22:15.000Z</time>
      </trkpt>
      <trkpt lat="49.67125" lon="5.60355">
        <ele>335</ele>
        <time>2022-03-23T10:22:17.000Z</time>
      </trkpt>
      <trkpt lat="49.67126" lon="5.60367">
        <ele>334.60000610352</ele>
        <time>2022-03-23T10:22:18.000Z</time>
      </trkpt>
      <trkpt lat="49.67129" lon="5.60387">
        <ele>333.79998779297</ele>
        <time>2022-03-23T10:22:20.000Z</time>
      </trkpt>
      <trkpt lat="49.6713" lon="5.60395">
        <ele>333.39999389648</ele>
        <time>2022-03-23T10:22:21.000Z</time>
      </trkpt>
      <trkpt lat="49.67133" lon="5.604">
        <ele>333</ele>
        <time>2022-03-23T10:22:22.000Z</time>
      </trkpt>
      <trkpt lat="49.67142" lon="5.60401">
        <ele>332.79998779297</ele>
        <time>2022-03-23T10:22:24.000Z</time>
      </trkpt>
      <trkpt lat="49.67152" lon="5.60392">
        <ele>333</ele>
        <time>2022-03-23T10:22:26.000Z</time>
      </trkpt>
      <trkpt lat="49.67157" lon="5.60386">
        <ele>333.20001220703</ele>
        <time>2022-03-23T10:22:27.000Z</time>
      </trkpt>
      <trkpt lat="49.67162" lon="5.6038">
        <ele>333.39999389648</ele>
        <time>2022-03-23T10:22:28.000Z</time>
      </trkpt>
      <trkpt lat="49.67176" lon="5.60364">
        <ele>334</ele>
        <time>2022-03-23T10:22:31.000Z</time>
      </trkpt>
      <trkpt lat="49.67181" lon="5.60363">
        <ele>334</ele>
        <time>2022-03-23T10:22:32.000Z</time>
      </trkpt>
      <trkpt lat="49.67195" lon="5.60376">
        <ele>333.60000610352</ele>
        <time>2022-03-23T10:22:35.000Z</time>
      </trkpt>
      <trkpt lat="49.67205" lon="5.60394">
        <ele>333.20001220703</ele>
        <time>2022-03-23T10:22:38.000Z</time>
      </trkpt>
      <trkpt lat="49.67222" lon="5.60392">
        <ele>333.79998779297</ele>
        <time>2022-03-23T10:22:41.000Z</time>
      </trkpt>
      <trkpt lat="49.67244" lon="5.60387">
        <ele>334.20001220703</ele>
        <time>2022-03-23T10:22:45.000Z</time>
      </trkpt>
      <trkpt lat="49.67249" lon="5.60384">
        <ele>334.20001220703</ele>
        <time>2022-03-23T10:22:46.000Z</time>
      </trkpt>
      <trkpt lat="49.6727" lon="5.60384">
        <ele>333.39999389648</ele>
        <time>2022-03-23T10:22:50.000Z</time>
      </trkpt>
      <trkpt lat="49.67278" lon="5.60391">
        <ele>333.20001220703</ele>
        <time>2022-03-23T10:22:53.000Z</time>
      </trkpt>
    </trkseg>
  </trk>
</gpx>